Flight Track Log - Related Links

Times and Time Zones

All times are in EDT time to prevent confusion due to time zone crossing. See the AFL150 flight status page for this flight to view local times or setup timezone preferences in your user account.


Time Position Orientation Groundspeed Altitude Reporting Facility
EDT Latitude Longitude Course Direction KTS MPH feet Rate Location/Type
Sun 06:21:23 AM 55.9650 37.3690 255° West 181 208 1,700  Level FlightAware ADS-B
Sun 06:21:48 AM 55.9590 37.3310 254° West 191 220 2,600 2,000 Climbing FlightAware ADS-B
Sun 06:22:08 AM 55.9540 37.3000 254° West 205 236 3,200 1,950 Climbing FlightAware ADS-B
Sun 06:22:28 AM 55.9480 37.2660 253° West 210 242 3,900 2,100 Climbing FlightAware ADS-B
Sun 06:22:48 AM 55.9420 37.2330 252° West 221 254 4,600 1,886 Climbing FlightAware ADS-B
Sun 06:23:03 AM 55.9370 37.2060 252° West 237 273 5,000 1,500 Climbing FlightAware ADS-B
Sun 06:23:08 AM 55.9370 37.1970 270° West 240 276 5,100 2,400 Climbing FlightAware ADS-B
Sun 06:23:28 AM 55.9420 37.1580 283° West 244 281 6,000 2,533 Climbing FlightAware ADS-B
Sun 06:23:53 AM 55.9520 37.1100 290° West 251 289 7,000 2,727 Climbing FlightAware ADS-B
Sun 06:24:12 AM 55.9580 37.0690 285° West 253 291 8,000 2,923 Climbing FlightAware ADS-B
Sun 06:24:32 AM 55.9620 37.0280 280° West 255 293 8,900 2,780 Climbing FlightAware ADS-B
Sun 06:24:53 AM 55.9670 36.9860 282° West 257 296 9,900 2,036 Climbing FlightAware ADS-B
Sun 06:25:28 AM 55.9740 36.9100 279° West 285 328 10,800 1,680 Climbing FlightAware ADS-B
Sun 06:26:08 AM 55.9840 36.8120 280° West 312 359 12,000 2,320 Climbing FlightAware ADS-B
Sun 06:26:43 AM 55.9960 36.7230 284° West 315 362 13,700 2,914 Climbing FlightAware ADS-B
Sun 06:27:18 AM 56.0060 36.6350 282° West 313 360 15,400 2,829 Climbing FlightAware ADS-B
Sun 06:27:53 AM 56.0170 36.5470 283° West 311 358 17,000 2,609 Climbing FlightAware ADS-B
Sun 06:28:27 AM 56.0270 36.4600 282° West 314 361 18,400 2,348 Climbing FlightAware ADS-B
Sun 06:29:02 AM 56.0380 36.3700 282° West 320 368 19,700 2,091 Climbing FlightAware ADS-B
Sun 06:29:33 AM 56.0470 36.2910 282° West 322 371 20,700 1,886 Climbing FlightAware ADS-B
Sun 06:30:12 AM 56.0600 36.1860 283° West 329 379 21,900 1,946 Climbing FlightAware ADS-B
Sun 06:30:47 AM 56.0710 36.0920 282° West 332 382 23,100 1,909 Climbing FlightAware ADS-B
Sun 06:31:18 AM 56.0800 36.0120 281° West 334 384 24,000 1,636 Climbing FlightAware ADS-B
Sun 06:31:53 AM 56.0910 35.9170 282° West 341 392 24,900 1,543 Climbing FlightAware ADS-B
Sun 06:32:28 AM 56.1020 35.8190 281° West 345 397 25,800 1,520 Climbing FlightAware ADS-B
Sun 06:33:08 AM 56.1150 35.7060 282° West 349 402 26,800 1,457 Climbing FlightAware ADS-B
Sun 06:33:38 AM 56.1250 35.6200 282° West 353 406 27,500 1,385 Climbing FlightAware ADS-B
Sun 06:34:13 AM 56.1360 35.5240 282° West 355 409 28,300 1,280 Climbing FlightAware ADS-B
Sun 06:34:53 AM 56.1490 35.4050 281° West 360 414 29,100 1,114 Climbing FlightAware ADS-B
Sun 06:35:23 AM 56.1580 35.3180 281° West 363 418 29,600 923 Climbing FlightAware ADS-B
Sun 06:35:58 AM 56.1700 35.2120 282° West 368 423 30,100 324 Climbing FlightAware ADS-B
Sun 06:36:37 AM 56.1830 35.0930 281° West 365 420 30,000  Descending FlightAware ADS-B
Sun 06:37:08 AM 56.1920 35.0040 280° West 367 422 30,100 91 Climbing FlightAware ADS-B
Sun 06:37:43 AM 56.2030 34.8980 281° West 370 426 30,100  Level FlightAware ADS-B
Sun 06:38:22 AM 56.2160 34.7770 281° West 371 427 30,100  Level FlightAware ADS-B
Sun 06:38:58 AM 56.2280 34.6710 282° West 372 428 30,100  Level FlightAware ADS-B
Sun 06:39:28 AM 56.2380 34.5800 281° West 373 429 30,100  Level FlightAware ADS-B
Sun 06:40:03 AM 56.2490 34.4770 281° West 374 430 30,100  Level FlightAware ADS-B
Sun 06:40:43 AM 56.2620 34.3520 281° West 376 433 30,100 -80 Level FlightAware ADS-B
Sun 06:41:18 AM 56.2730 34.2450 281° West 377 434 30,000 -94 Descending FlightAware ADS-B
Sun 06:41:47 AM 56.2820 34.1540 280° West 376 433 30,000 94 Level FlightAware ADS-B
Sun 06:42:22 AM 56.2930 34.0470 281° West 374 430 30,100 86 Climbing FlightAware ADS-B
Sun 06:42:57 AM 56.3040 33.9390 280° West 373 429 30,100  Level FlightAware ADS-B
Sun 06:43:33 AM 56.3140 33.8310 280° West 372 428 30,100  Level FlightAware ADS-B
Sun 06:44:08 AM 56.3250 33.7250 281° West 371 427 30,100  Level FlightAware ADS-B
Sun 06:44:43 AM 56.3350 33.6180 280° West 371 427 30,100  Level FlightAware ADS-B
Sun 06:45:22 AM 56.3460 33.5010 280° West 369 425 30,100  Level FlightAware ADS-B
Sun 06:45:57 AM 56.3570 33.3910 280° West 367 422 30,100 -79 Level FlightAware ADS-B
Sun 06:46:38 AM 56.3680 33.2720 280° West 365 420 30,000 -80 Descending FlightAware ADS-B
Sun 06:47:12 AM 56.3780 33.1660 280° West 364 419 30,000 87 Level FlightAware ADS-B
Sun 06:47:47 AM 56.3870 33.0630 279° West 364 419 30,100 85 Climbing FlightAware ADS-B
Sun 06:48:23 AM 56.3970 32.9580 280° West 363 418 30,100  Level FlightAware ADS-B
Sun 06:48:58 AM 56.4060 32.8530 279° West 362 417 30,100  Level FlightAware ADS-B
Sun 06:49:38 AM 56.4170 32.7350 280° West 363 418 30,100  Level FlightAware ADS-B
Sun 06:50:13 AM 56.4260 32.6300 279° West 363 418 30,100  Level FlightAware ADS-B
Sun 06:50:49 AM 56.4340 32.5380 279° West 363 418 30,100  Level FlightAware ADS-B
Sun 06:51:25 AM 56.4420 32.4460 279° West 363 418 30,100  Level FlightAware ADS-B
Sun 06:52:01 AM 56.4500 32.3540 279° West 363 418 30,100  Level FlightAware ADS-B
Sun 06:52:35 AM 56.4580 32.2680 280° West 363 418 30,100  Level FlightAware ADS-B
Sun 06:53:12 AM 56.4660 32.1730 279° West 363 418 30,100  Level FlightAware ADS-B
Sun 06:53:50 AM 56.4750 32.0760 280° West 363 418 30,100  Level FlightAware ADS-B
Sun 06:54:27 AM 56.4830 31.9820 279° West 363 418 30,100  Level FlightAware ADS-B
Sun 06:55:03 AM 56.4910 31.8900 279° West 363 418 30,100  Level FlightAware ADS-B
Sun 06:55:39 AM 56.4990 31.7980 279° West 363 418 30,100  Level FlightAware ADS-B
Sun 06:56:15 AM 56.5070 31.7060 279° West 363 418 30,100  Level FlightAware ADS-B
Sun 06:56:51 AM 56.5150 31.6140 279° West 363 418 30,100  Level FlightAware ADS-B
Sun 06:57:27 AM 56.5230 31.5220 279° West 363 418 30,100  Level FlightAware ADS-B
Sun 06:58:03 AM 56.5440 31.1980 277° West 372 428 30,100  Level FlightAware ADS-B
Sun 06:58:43 AM 56.5510 31.0930 277° West 372 428 30,100  Level FlightAware ADS-B
Sun 06:59:09 AM 56.5440 31.1980 97° East 372 428 30,100  Level FlightAware ADS-B
Sun 06:59:28 AM 56.6060 30.9590 295° West 384 442 30,100  Level FlightAware ADS-B
Sun 07:00:10 AM 56.6520 30.8620 311° West 385 443 30,100  Level FlightAware ADS-B
Sun 07:00:43 AM 56.6910 30.7780 310° West 385 443 30,100  Level FlightAware ADS-B
Sun 07:01:33 AM 56.7450 30.6480 307° West 381 438 30,100  Level FlightAware ADS-B
Sun 07:02:08 AM 56.7740 30.5710 305° West 381 438 30,100  Level FlightAware ADS-B
Sun 07:02:44 AM 56.8110 30.4690 304° West 381 438 30,100  Level FlightAware ADS-B
Sun 07:03:20 AM 56.8440 30.3780 304° West 381 438 30,100  Level FlightAware ADS-B
Sun 07:03:57 AM 56.8740 30.2930 303° West 381 438 30,100  Level FlightAware ADS-B
Sun 07:04:13 AM 56.8220 30.4400 123° Southeast 942 1084 30,100  Level FlightAware ADS-B
Sun 07:04:38 AM 56.9280 30.1540 304° West 382 440 30,100  Level FlightAware ADS-B
Sun 07:05:13 AM 56.9620 30.0600 304° West 383 441 30,100  Level FlightAware ADS-B
Sun 07:05:43 AM 56.9910 29.9810 304° West 383 441 30,100  Level FlightAware ADS-B
Sun 07:06:39 AM 57.0420 29.8380 303° West 383 441 30,100  Level FlightAware ADS-B
Sun 07:07:15 AM 57.0710 29.7550 303° West 383 441 30,100  Level FlightAware ADS-B
Sun 07:07:53 AM 57.1190 29.6260 304° West 383 441 30,100  Level FlightAware ADS-B
Sun 07:08:43 AM 57.1610 29.5070 303° West 382 440 30,100  Level FlightAware ADS-B
Sun 07:09:18 AM 57.2000 29.3980 303° West 383 441 30,100  Level FlightAware ADS-B
Sun 07:09:48 AM 57.2300 29.3140 303° West 383 441 30,100 -92 Level FlightAware ADS-B
Sun 07:10:23 AM 57.2630 29.2190 303° West 383 441 30,000  Descending FlightAware ADS-B
Sun 07:10:58 AM 57.2970 29.1220 303° West 382 440 30,100 80 Climbing FlightAware ADS-B
Sun 07:11:38 AM 57.3350 29.0140 303° West 381 438 30,100  Level FlightAware ADS-B
Sun 07:12:13 AM 57.3700 28.9160 304° West 381 438 30,100  Level FlightAware ADS-B
Sun 07:12:46 AM 57.4000 28.8290 303° West 381 438 30,100  Level FlightAware ADS-B
Sun 07:13:21 AM 57.4340 28.7300 303° West 380 437 30,100  Level FlightAware ADS-B
Sun 07:13:58 AM 57.4690 28.6280 303° West 380 437 30,100  Level FlightAware ADS-B
Sun 07:14:30 AM 57.5000 28.5400 303° West 380 437 30,100  Level FlightAware ADS-B
Sun 07:15:13 AM 57.5400 28.4210 302° West 381 438 30,100  Level FlightAware ADS-B
Sun 07:15:46 AM 57.5710 28.3300 302° West 381 438 30,100  Level FlightAware ADS-B
Sun 07:16:26 AM 57.6090 28.2180 302° West 380 437 30,100  Level FlightAware ADS-B
Sun 07:16:58 AM 57.6380 28.1320 302° West 380 437 30,100  Level FlightAware ADS-B
Sun 07:17:34 AM 57.6720 28.0300 302° West 380 437 30,100  Level FlightAware ADS-B
Sun 07:18:09 AM 57.7040 27.9360 303° West 380 437 30,100  Level FlightAware ADS-B
Sun 07:18:46 AM 57.7390 27.8310 302° West 382 440 30,100  Level FlightAware ADS-B
Sun 07:19:18 AM 57.7690 27.7420 302° West 382 440 30,100  Level FlightAware ADS-B
Sun 07:19:53 AM 57.8020 27.6420 302° West 382 440 30,100 -83 Level FlightAware ADS-B
Sun 07:20:30 AM 57.8350 27.5360 300° West 379 436 30,000  Descending FlightAware ADS-B
Sun 07:21:02 AM 57.8550 27.4400 291° West 377 434 30,100 87 Climbing FlightAware ADS-B
Sun 07:21:39 AM 57.8770 27.3270 290° West 377 434 30,100  Level FlightAware ADS-B
Sun 07:22:12 AM 57.8980 27.2250 291° West 378 435 30,100  Level FlightAware ADS-B
Sun 07:22:46 AM 57.9190 27.1190 290° West 379 436 30,100  Level FlightAware ADS-B
Sun 07:23:23 AM 57.9420 27.0070 291° West 380 437 30,100  Level FlightAware ADS-B
Sun 07:24:00 AM 57.9650 26.8920 291° West 381 438 30,100  Level FlightAware ADS-B
Sun 07:24:34 AM 57.9870 26.7840 291° West 381 438 30,100 -92 Level FlightAware ADS-B
Sun 07:25:05 AM 58.0050 26.6890 290° West 382 440 30,000  Descending FlightAware ADS-B
Sun 07:25:44 AM 58.0290 26.5690 291° West 382 440 30,100 83 Climbing FlightAware ADS-B
Sun 07:26:17 AM 58.0490 26.4660 290° West 384 442 30,100  Level FlightAware ADS-B
Sun 07:26:53 AM 58.0710 26.3520 290° West 385 443 30,100  Level FlightAware ADS-B
Sun 07:27:30 AM 58.0940 26.2350 290° West 386 444 30,100  Level FlightAware ADS-B
Sun 07:28:01 AM 58.1120 26.1370 289° West 385 443 30,100  Level FlightAware ADS-B
Sun 07:28:41 AM 58.1370 26.0100 290° West 386 444 30,100  Level FlightAware ADS-B
Sun 07:29:12 AM 58.1550 25.9110 289° West 386 444 30,100  Level FlightAware ADS-B
Sun 07:29:48 AM 58.1770 25.7960 290° West 387 445 30,100  Level FlightAware ADS-B
Sun 07:30:25 AM 58.1990 25.6800 290° West 388 447 30,100  Level FlightAware ADS-B
Sun 07:30:58 AM 58.2190 25.5730 290° West 388 447 30,100  Level FlightAware ADS-B
Sun 07:31:32 AM 58.2390 25.4640 289° West 388 447 30,100  Level FlightAware ADS-B
Sun 07:32:09 AM 58.2600 25.3510 289° West 388 447 30,100  Level FlightAware ADS-B
Sun 07:32:46 AM 58.2830 25.2260 289° West 388 447 30,100  Level FlightAware ADS-B
Sun 07:33:16 AM 58.3000 25.1300 289° West 389 448 30,100  Level FlightAware ADS-B
Sun 07:33:55 AM 58.3230 25.0030 289° West 389 448 30,100  Level FlightAware ADS-B
Sun 07:34:28 AM 58.3420 24.8970 289° West 389 448 30,100  Level FlightAware ADS-B
Sun 07:35:05 AM 58.3640 24.7760 289° West 389 448 30,100  Level FlightAware ADS-B
Sun 07:35:36 AM 58.3810 24.6780 288° West 389 448 30,100  Level FlightAware ADS-B
Sun 07:36:13 AM 58.4020 24.5600 289° West 390 449 30,100  Level FlightAware ADS-B
Sun 07:36:50 AM 58.4230 24.4390 288° West 389 448 30,100  Level FlightAware ADS-B
Sun 07:37:25 AM 58.4400 24.3230 286° West 390 449 30,100  Level FlightAware ADS-B
Sun 07:37:57 AM 58.4560 24.2160 286° West 392 451 30,100  Level FlightAware ADS-B
Sun 07:38:34 AM 58.4750 24.0940 287° West 393 452 30,100  Level FlightAware ADS-B
Sun 07:39:06 AM 58.4910 23.9830 285° West 395 455 30,100  Level FlightAware ADS-B
Sun 07:39:45 AM 58.5100 23.8560 286° West 397 457 30,100  Level FlightAware ADS-B
Sun 07:40:20 AM 58.5280 23.7350 286° West 398 458 30,100  Level FlightAware ADS-B
Sun 07:40:57 AM 58.5470 23.6100 286° West 399 459 30,100  Level FlightAware ADS-B
Sun 07:41:30 AM 58.5630 23.5000 286° West 401 461 30,100  Level FlightAware ADS-B
Sun 07:42:04 AM 58.5800 23.3810 285° West 402 463 30,100  Level FlightAware ADS-B
Sun 07:42:39 AM 58.5970 23.2630 286° West 404 465 30,100  Level FlightAware ADS-B
Sun 07:43:15 AM 58.6140 23.1390 285° West 406 467 30,100  Level FlightAware ADS-B
Sun 07:43:50 AM 58.6320 23.0150 286° West 406 467 30,100  Level FlightAware ADS-B
Sun 07:44:23 AM 58.6480 22.9040 286° West 407 468 30,100  Level FlightAware ADS-B
Sun 07:44:59 AM 58.6650 22.7760 284° West 406 467 30,100  Level FlightAware ADS-B
Sun 07:45:36 AM 58.6830 22.6470 285° West 406 467 30,100  Level FlightAware ADS-B
Sun 07:46:09 AM 58.6990 22.5350 285° West 407 468 30,100  Level FlightAware ADS-B
Sun 07:46:43 AM 58.7150 22.4150 284° West 408 470 30,100  Level FlightAware ADS-B
Sun 07:47:20 AM 58.7320 22.2840 284° West 407 468 30,100  Level FlightAware ADS-B
Sun 07:47:57 AM 58.7500 22.1530 285° West 407 468 30,100  Level FlightAware ADS-B
Sun 07:48:29 AM 58.7640 22.0440 284° West 406 467 30,100  Level FlightAware ADS-B
Sun 07:49:05 AM 58.7810 21.9180 285° West 406 467 30,100  Level FlightAware ADS-B
Sun 07:49:35 AM 58.7940 21.8210 285° West 405 466 30,100  Level FlightAware ADS-B
Sun 07:50:17 AM 58.8130 21.6730 284° West 404 465 30,100  Level FlightAware ADS-B
Sun 07:50:45 AM 58.8250 21.5770 284° West 403 464 30,100  Level FlightAware ADS-B
Sun 07:51:24 AM 58.8430 21.4360 284° West 402 463 30,100  Level FlightAware ADS-B
Sun 07:52:00 AM 58.8590 21.3100 284° West 402 463 30,100  Level FlightAware ADS-B
Sun 07:52:33 AM 58.8750 21.1970 285° West 402 463 30,100  Level FlightAware ADS-B
Sun 07:53:08 AM 58.8960 21.0770 289° West 401 461 30,100  Level FlightAware ADS-B
Sun 07:53:44 AM 58.9150 20.9540 287° West 401 461 30,100  Level FlightAware ADS-B
Sun 07:54:17 AM 58.9330 20.8450 288° West 401 461 30,100  Level FlightAware ADS-B
Sun 07:54:56 AM 58.9550 20.7110 288° West 399 459 30,100  Level FlightAware ADS-B
Sun 07:55:29 AM 58.9740 20.5990 288° West 399 459 30,100 -87 Level FlightAware ADS-B
Sun 07:56:05 AM 58.9930 20.4760 287° West 399 459 30,000  Descending FlightAware ADS-B
Sun 07:56:41 AM 59.0130 20.3540 288° West 397 457 30,100 87 Climbing FlightAware ADS-B
Sun 07:57:14 AM 59.0310 20.2430 288° West 397 457 30,100  Level FlightAware ADS-B
Sun 07:57:49 AM 59.0500 20.1190 287° West 397 457 30,100  Level FlightAware ADS-B
Sun 07:58:24 AM 59.0690 19.9990 287° West 397 457 30,100  Level FlightAware ADS-B
Sun 07:59:01 AM 59.0890 19.8760 288° West 397 457 30,100  Level FlightAware ADS-B
Sun 07:59:33 AM 59.1060 19.7630 286° West 397 457 30,100  Level FlightAware ADS-B
Sun 08:00:09 AM 59.1240 19.6470 287° West 397 457 30,100  Level FlightAware ADS-B
Sun 08:00:46 AM 59.1430 19.5250 287° West 397 457 30,100  Level FlightAware ADS-B
Sun 08:01:22 AM 59.1630 19.3940 287° West 397 457 30,100  Level FlightAware ADS-B
Sun 08:01:55 AM 59.1800 19.2830 287° West 397 457 30,100  Level FlightAware ADS-B
Sun 08:02:32 AM 59.1990 19.1550 286° West 396 456 30,100  Level FlightAware ADS-B
Sun 08:03:03 AM 59.2150 19.0450 286° West 396 456 30,100  Level FlightAware ADS-B
Sun 08:03:40 AM 59.2340 18.9200 287° West 397 457 30,100  Level FlightAware ADS-B
Sun 08:04:12 AM 59.2500 18.8080 286° West 397 457 30,100  Level FlightAware ADS-B
Sun 08:04:49 AM 59.2680 18.6830 286° West 396 456 30,100  Level FlightAware ADS-B
Sun 08:05:25 AM 59.2860 18.5590 286° West 396 456 30,100  Level FlightAware ADS-B
Sun 08:05:58 AM 59.3020 18.4490 286° West 396 456 30,100  Level FlightAware ADS-B
Sun 08:06:35 AM 59.3210 18.3170 286° West 396 456 30,100  Level FlightAware ADS-B
Sun 08:07:07 AM 59.3360 18.2090 285° West 397 457 30,100  Level FlightAware ADS-B
Sun 08:07:42 AM 59.3540 18.0850 286° West 397 457 30,100  Level FlightAware ADS-B
Sun 08:08:21 AM 59.3730 17.9490 285° West 397 457 30,100  Level FlightAware ADS-B
Sun 08:08:54 AM 59.3890 17.8350 285° West 397 457 30,100  Level FlightAware ADS-B
Sun 08:09:31 AM 59.4060 17.7070 285° West 397 457 30,100  Level FlightAware ADS-B
Sun 08:10:07 AM 59.4230 17.5820 285° West 397 457 30,100  Level FlightAware ADS-B
Sun 08:10:39 AM 59.4380 17.4710 285° West 397 457 30,100  Level FlightAware ADS-B
Sun 08:11:16 AM 59.4560 17.3400 285° West 398 458 30,100  Level FlightAware ADS-B
Sun 08:11:40 AM 59.4660 17.2630 284° West 398 458 30,100  Level FlightAware ADS-B
Sun 08:12:31 AM 59.4900 17.0840 285° West 397 457 30,100  Level FlightAware ADS-B
Sun 08:13:04 AM 59.5050 16.9690 284° West 398 458 30,100  Level FlightAware ADS-B
Sun 08:13:41 AM 59.5210 16.8410 284° West 398 458 30,100  Level FlightAware ADS-B
Sun 08:14:18 AM 59.5380 16.7100 284° West 398 458 30,100  Level FlightAware ADS-B
Sun 08:14:50 AM 59.5520 16.5980 284° West 398 458 30,100 -87 Level FlightAware ADS-B
Sun 08:15:27 AM 59.5690 16.4680 285° West 397 457 30,000  Descending FlightAware ADS-B
Sun 08:15:58 AM 59.5830 16.3550 284° West 397 457 30,100 90 Climbing FlightAware ADS-B
Sun 08:16:34 AM 59.5990 16.2310 284° West 397 457 30,100  Level FlightAware ADS-B
Sun 08:17:11 AM 59.6140 16.1040 283° West 398 458 30,100  Level FlightAware ADS-B
Sun 08:17:48 AM 59.6300 15.9710 283° West 398 458 30,100  Level FlightAware ADS-B
Sun 08:18:23 AM 59.6450 15.8490 284° West 397 457 30,100  Level FlightAware ADS-B
Sun 08:18:57 AM 59.6600 15.7290 284° West 397 457 30,100 -78 Level FlightAware ADS-B
Sun 08:19:40 AM 59.6780 15.5720 283° West 398 458 30,000 -79 Descending FlightAware ADS-B
Sun 08:20:13 AM 59.6920 15.4570 284° West 398 458 30,000 88 Level FlightAware ADS-B
Sun 08:20:48 AM 59.7060 15.3320 283° West 398 458 30,100 85 Climbing FlightAware ADS-B
Sun 08:21:24 AM 59.7210 15.2030 283° West 398 458 30,100  Level FlightAware ADS-B
Sun 08:21:59 AM 59.7350 15.0810 283° West 398 458 30,100  Level FlightAware ADS-B
Sun 08:22:36 AM 59.7500 14.9510 283° West 398 458 30,100  Level FlightAware ADS-B
Sun 08:23:06 AM 59.7620 14.8440 283° West 399 459 30,100  Level FlightAware ADS-B
Sun 08:23:44 AM 59.7780 14.7070 283° West 400 460 30,100  Level FlightAware ADS-B
Sun 08:24:20 AM 59.7920 14.5810 283° West 400 460 30,100  Level FlightAware ADS-B
Sun 08:24:54 AM 59.8050 14.4570 282° West 400 460 30,100  Level FlightAware ADS-B
Sun 08:25:24 AM 59.8170 14.3520 283° West 400 460 30,100  Level FlightAware ADS-B
Sun 08:26:11 AM 59.8350 14.1800 282° West 401 461 30,100  Level FlightAware ADS-B
Sun 08:26:44 AM 59.8480 14.0610 282° West 401 461 30,100  Level FlightAware ADS-B
Sun 08:27:22 AM 59.8620 13.9280 282° West 402 463 30,100  Level FlightAware ADS-B
Sun 08:27:55 AM 59.8740 13.8120 282° West 403 464 30,100  Level FlightAware ADS-B
Sun 08:28:30 AM 59.8880 13.6770 282° West 404 465 30,100  Level FlightAware ADS-B
Sun 08:29:06 AM 59.9010 13.5490 282° West 405 466 30,100  Level FlightAware ADS-B
Sun 08:29:42 AM 59.9140 13.4160 281° West 405 466 30,100  Level FlightAware ADS-B
Sun 08:30:12 AM 59.9250 13.3060 281° West 405 466 30,100 261 Level FlightAware ADS-B
Sun 08:30:51 AM 59.9390 13.1690 282° West 406 467 30,400 822 Climbing FlightAware ADS-B
Sun 08:31:25 AM 59.9560 13.0410 285° West 404 465 31,100 1,217 Climbing FlightAware ADS-B
Sun 08:32:00 AM 59.9740 12.9200 287° West 405 466 31,800 750 Climbing FlightAware ADS-B
Sun 08:32:37 AM 59.9950 12.7840 287° West 403 464 32,000 171 Climbing FlightAware ADS-B
Sun 08:33:10 AM 60.0120 12.6670 286° West 402 463 32,000  Level FlightAware ADS-B
Sun 08:33:42 AM 60.0290 12.5590 288° West 401 461 32,000 85 Level FlightAware ADS-B
Sun 08:34:21 AM 60.0490 12.4170 286° West 403 464 32,100 80 Climbing FlightAware ADS-B
Sun 08:34:57 AM 60.0680 12.2860 286° West 405 466 32,100  Level FlightAware ADS-B
Sun 08:35:30 AM 60.0850 12.1700 286° West 406 467 32,100  Level FlightAware ADS-B
Sun 08:36:07 AM 60.1040 12.0360 286° West 408 470 32,100  Level FlightAware ADS-B
Sun 08:36:41 AM 60.1220 11.9070 286° West 409 471 32,100  Level FlightAware ADS-B
Sun 08:37:14 AM 60.1380 11.7910 286° West 409 471 32,100  Level FlightAware ADS-B
Sun 08:37:52 AM 60.1570 11.6580 286° West 409 471 32,100  Level FlightAware ADS-B
Sun 08:38:28 AM 60.1760 11.5210 286° West 409 471 32,100  Level FlightAware ADS-B
Sun 08:39:00 AM 60.1920 11.4020 285° West 409 471 32,100  Level FlightAware ADS-B
Sun 08:39:37 AM 60.2100 11.2690 285° West 410 472 32,100  Level FlightAware ADS-B
Sun 08:40:10 AM 60.2270 11.1480 286° West 410 472 32,100  Level FlightAware ADS-B
Sun 08:40:44 AM 60.2430 11.0240 285° West 410 472 32,100  Level FlightAware ADS-B
Sun 08:41:19 AM 60.2600 10.8970 285° West 411 473 32,100  Level FlightAware ADS-B
Sun 08:41:58 AM 60.2790 10.7490 285° West 411 473 32,100  Level FlightAware ADS-B
Sun 08:42:28 AM 60.2940 10.6400 286° West 411 473 32,100  Level FlightAware ADS-B
Sun 08:43:07 AM 60.3120 10.4980 284° West 411 473 32,100  Level FlightAware ADS-B
Sun 08:43:42 AM 60.3290 10.3670 285° West 410 472 32,100  Level FlightAware ADS-B
Sun 08:44:17 AM 60.3450 10.2410 284° West 410 472 32,100 -87 Level FlightAware ADS-B
Sun 08:44:51 AM 60.3610 10.1130 284° West 410 472 32,000  Descending FlightAware ADS-B
Sun 08:45:26 AM 60.3770 9.9790 284° West 410 472 32,100 86 Climbing FlightAware ADS-B
Sun 08:46:01 AM 60.3930 9.8530 284° West 411 473 32,100 -86 Level FlightAware ADS-B
Sun 08:46:36 AM 60.4100 9.7180 284° West 410 472 32,000 -83 Descending FlightAware ADS-B
Sun 08:47:13 AM 60.4250 9.5880 283° West 411 473 32,000 85 Level FlightAware ADS-B
Sun 08:47:47 AM 60.4410 9.4600 284° West 412 474 32,100 90 Climbing FlightAware ADS-B
Sun 08:48:20 AM 60.4560 9.3320 283° West 414 476 32,100  Level FlightAware ADS-B
Sun 08:48:56 AM 60.4720 9.1960 283° West 415 478 32,100  Level FlightAware ADS-B
Sun 08:49:33 AM 60.4890 9.0540 284° West 417 480 32,100  Level FlightAware ADS-B
Sun 08:50:04 AM 60.5020 8.9390 283° West 417 480 32,100  Level FlightAware ADS-B
Sun 08:50:40 AM 60.5180 8.8020 283° West 419 482 32,100  Level FlightAware ADS-B
Sun 08:51:18 AM 60.5340 8.6550 283° West 421 484 32,100  Level FlightAware ADS-B
Sun 08:51:47 AM 60.5460 8.5490 283° West 422 486 32,100  Level FlightAware ADS-B
Sun 08:52:21 AM 60.5620 8.4080 283° West 423 487 32,100  Level FlightAware ADS-B
Sun 08:53:02 AM 60.5790 8.2530 283° West 425 489 32,100  Level FlightAware ADS-B
Sun 08:53:37 AM 60.5930 8.1220 282° West 426 490 32,100  Level FlightAware ADS-B
Sun 08:54:09 AM 60.6080 7.9910 283° West 426 490 32,100  Level FlightAware ADS-B
Sun 08:54:44 AM 60.6220 7.8610 282° West 427 491 32,100  Level FlightAware ADS-B
Sun 08:55:20 AM 60.6370 7.7130 282° West 427 491 32,100  Level FlightAware ADS-B
Sun 08:55:57 AM 60.6530 7.5630 282° West 428 493 32,100 -113 Level FlightAware ADS-B
Sun 08:56:13 AM 60.6592 7.5021 282° West 428 493 32,000  Descending FlightAware ADS-B (MEB / YMEN)
Sun 08:56:44 AM 60.6718 7.3807 282° West 429 494 32,100 98 Climbing FlightAware ADS-B (MEB / YMEN)
Sun 08:57:14 AM 60.6841 7.2606 282° West 429 494 32,100  Level FlightAware ADS-B (MEB / YMEN)
Sun 08:57:44 AM 60.6961 7.1410 282° West 430 495 32,100  Level FlightAware ADS-B (MEB / YMEN)
Sun 08:58:14 AM 60.7080 7.0230 282° West 430 495 32,100  Level FlightAware ADS-B
Sun 08:58:24 AM 60.7119 6.9838 281° West 431 496 32,100  Level FlightAware ADS-B (MEB / YMEN)
Sun 08:58:54 AM 60.7239 6.8619 281° West 431 496 32,100  Level FlightAware ADS-B (MEB / YMEN)
Sun 08:59:34 AM 60.7392 6.7049 281° West 432 497 32,100  Level FlightAware ADS-B (MEB / YMEN)
Sun 09:00:13 AM 60.7546 6.5459 281° West 432 497 32,100  Level FlightAware ADS-B (MEB / YMEN)
Sun 09:00:44 AM 60.7661 6.4252 281° West 431 496 32,100  Level FlightAware ADS-B (MEB / YMEN)
Sun 09:01:14 AM 60.7777 6.3027 281° West 432 497 32,100  Level FlightAware ADS-B (MEB / YMEN)
Sun 09:01:44 AM 60.7889 6.1827 281° West 432 497 32,100  Level FlightAware ADS-B (MEB / YMEN)
Sun 09:02:24 AM 60.8036 6.0233 281° West 432 497 32,100  Level FlightAware ADS-B (MEB / YMEN)
Sun 09:02:54 AM 60.8145 5.9031 281° West 432 497 32,100  Level FlightAware ADS-B (MEB / YMEN)
Sun 09:03:33 AM 60.8285 5.7482 281° West 433 498 32,100  Level FlightAware ADS-B (MEB / YMEN)
Sun 09:04:04 AM 60.8390 5.6280 280° West 433 498 32,100  Level FlightAware ADS-B
Sun 09:04:05 AM 60.8402 5.6170 282° West 433 498 32,100  Level FlightAware ADS-B (MEB / YMEN)
Sun 09:04:41 AM 60.8520 5.4800 280° West 432 497 32,100  Level FlightAware ADS-B
Sun 09:05:17 AM 60.8650 5.3340 280° West 433 498 32,100  Level FlightAware ADS-B
Sun 09:05:51 AM 60.8760 5.1990 280° West 433 498 32,100  Level FlightAware ADS-B
Sun 09:06:26 AM 60.8880 5.0580 280° West 434 499 32,100  Level FlightAware ADS-B
Sun 09:07:02 AM 60.9010 4.9120 280° West 435 501 32,100  Level FlightAware ADS-B
Sun 09:07:36 AM 60.9120 4.7720 279° West 435 501 32,100  Level FlightAware ADS-B
Sun 09:08:09 AM 60.9230 4.6390 280° West 435 501 32,100  Level FlightAware ADS-B
Sun 09:08:47 AM 60.9350 4.4870 279° West 435 501 32,100  Level FlightAware ADS-B
Sun 09:09:19 AM 60.9450 4.3570 279° West 435 501 32,100  Level FlightAware ADS-B
Sun 09:09:54 AM 60.9570 4.2070 279° West 436 502 32,100  Level FlightAware ADS-B
Sun 09:10:30 AM 60.9690 4.0550 279° West 436 502 32,100  Level FlightAware ADS-B
Sun 09:11:00 AM 60.9770 3.9460 279° West 436 502 32,100  Level FlightAware ADS-B
Sun 09:11:40 AM 60.9900 3.7760 279° West 437 503 32,100  Level FlightAware ADS-B
Sun 09:12:16 AM 60.9980 3.6610 278° West 437 503 32,100  Level FlightAware ADS-B
Sun 09:12:52 AM 61.0110 3.4850 279° West 438 504 32,100  Level FlightAware ADS-B
Sun 09:13:24 AM 61.0210 3.3470 279° West 439 505 32,100  Level FlightAware ADS-B
Sun 09:14:00 AM 61.0310 3.1940 278° West 439 505 32,100  Level FlightAware ADS-B
Sun 09:14:33 AM 61.0410 3.0590 279° West 440 506 32,100  Level FlightAware ADS-B
Sun 09:15:13 AM 61.0520 2.8970 278° West 441 507 32,100  Level FlightAware ADS-B
Sun 09:15:44 AM 61.0600 2.7660 277° West 440 506 32,100  Level FlightAware ADS-B
Sun 09:16:22 AM 61.0710 2.6030 278° West 440 506 32,100  Level FlightAware ADS-B
Sun 09:16:57 AM 61.0800 2.4670 278° West 441 507 32,100  Level FlightAware ADS-B
Sun 09:17:27 AM 61.0880 2.3340 277° West 441 507 32,100  Level FlightAware ADS-B
Sun 09:18:04 AM 61.0980 2.1800 278° West 442 509 32,100  Level FlightAware ADS-B
Sun 09:18:40 AM 61.1070 2.0330 277° West 443 510 32,100  Level FlightAware ADS-B
Sun 09:19:12 AM 61.1150 1.8990 277° West 443 510 32,100  Level FlightAware ADS-B
Sun 09:19:49 AM 61.1240 1.7430 277° West 445 512 32,100  Level FlightAware ADS-B
Sun 09:20:25 AM 61.1330 1.5940 277° West 445 512 32,100  Level FlightAware ADS-B
Sun 09:21:02 AM 61.1420 1.4330 277° West 445 512 32,100  Level FlightAware ADS-B
Sun 09:21:32 AM 61.1490 1.3110 277° West 444 511 32,100  Level FlightAware ADS-B
Sun 09:22:10 AM 61.1580 1.1490 277° West 444 511 32,100  Level FlightAware ADS-B
Sun 09:22:45 AM 61.1650 1.0020 276° West 444 511 32,100  Level FlightAware ADS-B
Sun 09:23:22 AM 61.1730 0.8460 276° West 445 512 32,100  Level FlightAware ADS-B
Sun 09:23:55 AM 61.1810 0.7070 277° West 445 512 32,100  Level FlightAware ADS-B
Sun 09:24:33 AM 61.1890 0.5440 276° West 445 512 32,100  Level FlightAware ADS-B
Sun 09:25:03 AM 61.1950 0.4200 276° West 445 512 32,100  Level FlightAware ADS-B
Sun 09:25:40 AM 61.2020 0.2620 275° West 445 512 32,100  Level FlightAware ADS-B
Sun 09:26:16 AM 61.2090 0.1130 276° West 445 512 32,100 -92 Level FlightAware ADS-B
Sun 09:26:45 AM 61.2200 -0.0060 281° West 447 514 32,000  Descending FlightAware ADS-B
Sun 09:27:21 AM 61.2480 -0.1530 292° West 447 514 32,100  Climbing FlightAware ADS-B
Sun 09:27:54 AM 61.2780 -0.2840 296° West 444 511 32,000 -90 Descending FlightAware ADS-B
Sun 09:28:28 AM 61.3060 -0.4090 295° West 441 507 32,000  Level FlightAware ADS-B
Sun 09:29:03 AM 61.3370 -0.5450 295° West 441 507 32,000  Level FlightAware ADS-B
Sun 09:29:37 AM 61.3670 -0.6830 294° West 439 505 32,000 85 Level FlightAware ADS-B
Sun 09:30:14 AM 61.3980 -0.8240 295° West 439 505 32,100 88 Climbing FlightAware ADS-B
Sun 09:30:45 AM 61.4240 -0.9410 295° West 439 505 32,100  Level FlightAware ADS-B
Sun 09:31:24 AM 61.4560 -1.0920 294° West 438 504 32,100  Level FlightAware ADS-B
Sun 09:31:59 AM 61.4850 -1.2270 294° West 438 504 32,100 -88 Level FlightAware ADS-B
Sun 09:32:32 AM 61.5120 -1.3510 295° West 437 503 32,000  Descending FlightAware ADS-B
Sun 09:33:07 AM 61.5410 -1.4870 294° West 438 504 32,100 90 Climbing FlightAware ADS-B
Sun 09:33:39 AM 61.5670 -1.6080 294° West 438 504 32,100 329 Level FlightAware ADS-B
Sun 09:34:20 AM 61.6010 -1.7750 293° West 443 510 32,500 779 Climbing FlightAware ADS-B
Sun 09:34:56 AM 61.6310 -1.9170 294° West 443 510 33,100 1,014 Climbing FlightAware ADS-B
Sun 09:35:31 AM 61.6600 -2.0550 294° West 443 510 33,700 896 Climbing FlightAware ADS-B
Sun 09:36:03 AM 61.6850 -2.1800 293° West 444 511 34,100 269 Climbing FlightAware ADS-B
Sun 09:36:38 AM 61.7140 -2.3210 294° West 446 513 34,000 -83 Descending FlightAware ADS-B
Sun 09:37:15 AM 61.7430 -2.4640 293° West 443 510 34,000  Level FlightAware ADS-B
Sun 09:38:01 AM 61.7750 -2.6300 292° West 441 507 34,000  Level FlightAware ADS-B
Sun 09:38:37 AM 61.7990 -2.7520 293° West 441 507 34,000  Level FlightAware ADS-B
Sun 09:39:13 AM 61.8220 -2.8750 292° West 441 507 34,000  Level FlightAware ADS-B
Sun 09:39:49 AM 61.8450 -2.9970 292° West 441 507 34,000  Level FlightAware ADS-B
Sun 09:40:24 AM 61.8910 -3.2130 294° West 439 505 34,000  Level FlightAware ADS-B
Sun 09:40:57 AM 61.9170 -3.3440 293° West 439 505 34,000  Level FlightAware ADS-B
Sun 09:41:39 AM 61.9440 -3.4900 292° West 439 505 34,000  Level FlightAware ADS-B
Sun 09:42:16 AM 61.9680 -3.6160 292° West 439 505 34,000  Level FlightAware ADS-B
Sun 09:42:52 AM 61.9920 -3.7390 293° West 439 505 34,000  Level FlightAware ADS-B
Sun 09:43:28 AM 62.0150 -3.8610 292° West 439 505 34,000  Level FlightAware ADS-B
Sun 09:44:05 AM 62.0390 -3.9880 292° West 439 505 34,000  Level FlightAware ADS-B
Sun 09:44:41 AM 62.0620 -4.1110 292° West 439 505 34,000  Level FlightAware ADS-B
Sun 09:45:17 AM 62.0850 -4.2340 292° West 439 505 34,000  Level FlightAware ADS-B
Sun 09:45:52 AM 62.1420 -4.5430 292° West 449 517 34,000  Level FlightAware ADS-B
Sun 09:46:37 AM 62.1720 -4.7110 291° West 449 517 34,000  Level FlightAware ADS-B
Sun 09:47:15 AM 62.1960 -4.8460 291° West 449 517 34,000  Level FlightAware ADS-B
Sun 09:47:51 AM 62.2190 -4.9730 291° West 449 517 34,000  Level FlightAware ADS-B
Sun 09:48:28 AM 62.2420 -5.1040 291° West 449 517 34,000  Level FlightAware ADS-B
Sun 09:49:03 AM 62.2640 -5.2280 291° West 449 517 34,000  Level FlightAware ADS-B
Sun 09:49:40 AM 62.2880 -5.3590 292° West 449 517 34,000  Level FlightAware ADS-B
Sun 09:50:20 AM 62.3380 -5.6560 290° West 446 513 34,000  Level FlightAware ADS-B
Sun 09:50:54 AM 62.3630 -5.7980 291° West 447 514 34,000  Level FlightAware ADS-B
Sun 09:51:33 AM 62.3860 -5.9370 290° West 446 513 34,000  Level FlightAware ADS-B
Sun 09:52:09 AM 62.4080 -6.0650 290° West 446 513 34,000  Level FlightAware ADS-B
Sun 09:52:46 AM 62.4300 -6.1960 290° West 446 513 34,000  Level FlightAware ADS-B
Sun 09:53:22 AM 62.4610 -6.3900 289° West 445 512 34,000  Level FlightAware ADS-B
Sun 09:53:58 AM 62.4820 -6.5190 289° West 445 512 34,000  Level FlightAware ADS-B
Sun 09:54:34 AM 62.5020 -6.6480 289° West 445 512 34,000  Level FlightAware ADS-B
Sun 09:55:10 AM 62.5230 -6.7770 289° West 445 512 34,000  Level FlightAware ADS-B
Sun 09:55:47 AM 62.5640 -7.0200 290° West 443 510 34,000 83 Level FlightAware ADS-B
Sun 09:56:22 AM 62.5840 -7.1510 288° West 443 510 34,100 85 Climbing FlightAware ADS-B
Sun 09:56:58 AM 62.6030 -7.2810 288° West 443 510 34,100  Level FlightAware ADS-B
Sun 09:57:34 AM 62.6230 -7.4110 289° West 443 510 34,100  Level FlightAware ADS-B
Sun 09:58:10 AM 62.6420 -7.5400 288° West 443 510 34,100  Level FlightAware ADS-B
Sun 09:58:46 AM 62.6610 -7.6700 288° West 443 510 34,100  Level FlightAware ADS-B
Sun 09:59:22 AM 62.6810 -7.8000 289° West 443 510 34,100  Level FlightAware ADS-B
Sun 09:59:59 AM 62.7010 -7.9340 288° West 443 510 34,100  Level FlightAware ADS-B
Sun 10:00:36 AM 62.7200 -8.0680 287° West 443 510 34,100 -71 Level FlightAware ADS-B
Sun 10:01:24 AM 62.8080 -8.4000 300° West 446 513 34,000 -71 Descending FlightAware ADS-B
Sun 10:02:01 AM 62.8330 -8.5320 293° West 446 513 34,000  Level FlightAware ADS-B
Sun 10:02:35 AM 62.8550 -8.6530 292° West 446 513 34,000  Level FlightAware ADS-B
Sun 10:03:06 AM 62.8910 -8.8350 294° West 448 516 34,000  Level FlightAware ADS-B
Sun 10:03:44 AM 62.9160 -8.9710 292° West 448 516 34,000  Level FlightAware ADS-B
Sun 10:04:16 AM 62.9460 -9.1370 292° West 448 516 34,000  Level FlightAware ADS-B
Sun 10:04:54 AM 62.9760 -9.2980 292° West 447 514 34,000  Level FlightAware ADS-B
Sun 10:05:28 AM 63.0020 -9.4420 292° West 447 514 34,000  Level FlightAware ADS-B
Sun 10:06:04 AM 63.0290 -9.5920 292° West 448 516 34,000  Level FlightAware ADS-B
Sun 10:06:40 AM 63.0560 -9.7430 292° West 448 516 34,000  Level FlightAware ADS-B
Sun 10:07:13 AM 63.0800 -9.8830 291° West 447 514 34,000  Level FlightAware ADS-B
Sun 10:07:46 AM 63.1050 -10.0250 291° West 447 514 34,000  Level FlightAware ADS-B
Sun 10:08:23 AM 63.1320 -10.1790 291° West 446 513 34,000  Level FlightAware ADS-B
Sun 10:09:00 AM 63.1600 -10.3390 291° West 446 513 34,000  Level FlightAware ADS-B
Sun 10:09:36 AM 63.1860 -10.4920 291° West 445 512 34,000  Level FlightAware ADS-B
Sun 10:10:08 AM 63.2090 -10.6270 291° West 445 512 34,000  Level FlightAware ADS-B
Sun 10:10:45 AM 63.2350 -10.7840 290° West 445 512 34,000  Level FlightAware ADS-B
Sun 10:11:16 AM 63.2570 -10.9170 290° West 445 512 34,000  Level FlightAware ADS-B
Sun 10:12:07 AM 63.2870 -11.0970 290° West 445 512 34,000 68 Level FlightAware ADS-B
Sun 10:12:44 AM 63.3200 -11.2960 290° West 445 512 34,100  Climbing FlightAware ADS-B
Sun 10:13:18 AM 63.3440 -11.4400 290° West 445 512 34,000 -86 Descending FlightAware ADS-B
Sun 10:13:54 AM 63.3690 -11.5960 290° West 445 512 34,000  Level FlightAware ADS-B
Sun 10:14:27 AM 63.3910 -11.7360 289° West 445 512 34,000  Level FlightAware ADS-B
Sun 10:15:02 AM 63.4150 -11.8890 289° West 445 512 34,000  Level FlightAware ADS-B
Sun 10:15:34 AM 63.4370 -12.0280 290° West 445 512 34,000  Level FlightAware ADS-B
Sun 10:16:15 AM 63.4630 -12.1920 290° West 445 512 34,000  Level FlightAware ADS-B
Sun 10:16:46 AM 63.4860 -12.3400 289° West 445 512 34,000  Level FlightAware ADS-B
Sun 10:17:24 AM 63.5110 -12.5050 289° West 445 512 34,000  Level FlightAware ADS-B
Sun 10:18:00 AM 63.5350 -12.6620 289° West 445 512 34,000  Level FlightAware ADS-B
Sun 10:18:31 AM 63.5550 -12.7940 289° West 445 512 34,000  Level FlightAware ADS-B
Sun 10:19:08 AM 63.5790 -12.9570 288° West 444 511 34,000  Level FlightAware ADS-B
Sun 10:19:44 AM 63.6020 -13.1130 288° West 445 512 34,000  Level FlightAware ADS-B
Sun 10:20:19 AM 63.6250 -13.2650 289° West 445 512 34,000 85 Level FlightAware ADS-B
Sun 10:20:55 AM 63.6480 -13.4230 288° West 444 511 34,100  Climbing FlightAware ADS-B
Sun 10:21:28 AM 63.6690 -13.5690 288° West 445 512 34,000 -87 Descending FlightAware ADS-B
Sun 10:22:04 AM 63.6920 -13.7300 288° West 446 513 34,000  Level FlightAware ADS-B
Sun 10:22:38 AM 63.7130 -13.8800 288° West 445 512 34,000  Level FlightAware ADS-B
Sun 10:23:12 AM 63.7340 -14.0280 288° West 445 512 34,000  Level FlightAware ADS-B
Sun 10:23:50 AM 63.7570 -14.1960 287° West 445 512 34,000  Level FlightAware ADS-B
Sun 10:24:22 AM 63.7770 -14.3370 288° West 445 512 34,000  Level FlightAware ADS-B
Sun 10:24:58 AM 63.7990 -14.4970 287° West 443 510 34,000 83 Level FlightAware ADS-B
Sun 10:25:34 AM 63.8200 -14.6590 286° West 444 511 34,100  Climbing FlightAware ADS-B
Sun 10:26:10 AM 63.8420 -14.8170 288° West 444 511 34,000 -88 Descending FlightAware ADS-B
Sun 10:26:42 AM 63.8600 -14.9560 286° West 442 509 34,000  Level FlightAware ADS-B
Sun 10:27:15 AM 63.8790 -15.1020 287° West 441 507 34,000  Level FlightAware ADS-B
Sun 10:27:54 AM 63.9020 -15.2770 287° West 440 506 34,000  Level FlightAware ADS-B
Sun 10:28:30 AM 63.9220 -15.4350 286° West 439 505 34,000  Level FlightAware ADS-B
Sun 10:29:01 AM 63.9400 -15.5710 287° West 439 505 34,000  Level FlightAware ADS-B
Sun 10:29:38 AM 63.9600 -15.7340 286° West 439 505 34,000  Level FlightAware ADS-B
Sun 10:30:14 AM 63.9810 -15.8960 287° West 439 505 34,000  Level FlightAware ADS-B
Sun 10:30:46 AM 63.9980 -16.0390 285° West 440 506 34,000  Level FlightAware ADS-B
Sun 10:31:22 AM 64.0180 -16.1980 286° West 440 506 34,000  Level FlightAware ADS-B
Sun 10:31:58 AM 64.0370 -16.3590 285° West 440 506 34,000  Level FlightAware ADS-B
Sun 10:32:34 AM 64.0570 -16.5210 286° West 440 506 34,000  Level FlightAware ADS-B
Sun 10:33:08 AM 64.0750 -16.6730 285° West 441 507 34,000  Level FlightAware ADS-B
Sun 10:33:44 AM 64.0940 -16.8340 285° West 441 507 34,000  Level FlightAware ADS-B
Sun 10:34:18 AM 64.1120 -16.9870 285° West 441 507 34,000  Level FlightAware ADS-B
Sun 10:34:53 AM 64.1300 -17.1430 285° West 442 509 34,000 83 Level FlightAware ADS-B
Sun 10:35:30 AM 64.1490 -17.3100 285° West 443 510 34,100  Climbing FlightAware ADS-B
Sun 10:36:03 AM 64.1660 -17.4590 285° West 442 509 34,000 -88 Descending FlightAware ADS-B
Sun 10:36:38 AM 64.1840 -17.6190 285° West 443 510 34,000  Level FlightAware ADS-B
Sun 10:37:14 AM 64.2020 -17.7840 284° West 445 512 34,000  Level FlightAware ADS-B
Sun 10:37:50 AM 64.2200 -17.9480 284° West 446 513 34,000  Level FlightAware ADS-B
Sun 10:38:22 AM 64.2360 -18.0970 284° West 446 513 34,000  Level FlightAware ADS-B
Sun 10:38:58 AM 64.2530 -18.2610 283° West 447 514 34,000  Level FlightAware ADS-B
Sun 10:39:34 AM 64.2710 -18.4250 284° West 448 516 34,000 86 Level FlightAware ADS-B
Sun 10:40:08 AM 64.2870 -18.5830 283° West 449 517 34,100 86 Climbing FlightAware ADS-B
Sun 10:40:44 AM 64.3040 -18.7520 283° West 448 516 34,100 -83 Level FlightAware ADS-B
Sun 10:41:20 AM 64.3210 -18.9180 283° West 449 517 34,000 -88 Descending FlightAware ADS-B
Sun 10:41:52 AM 64.3370 -19.0680 284° West 448 516 34,000  Level FlightAware ADS-B
Sun 10:42:29 AM 64.3530 -19.2330 283° West 448 516 34,000 83 Level FlightAware ADS-B
Sun 10:43:04 AM 64.3700 -19.4030 283° West 446 513 34,100  Climbing FlightAware ADS-B
Sun 10:43:40 AM 64.3860 -19.5700 283° West 446 513 34,000 -82 Descending FlightAware ADS-B
Sun 10:44:17 AM 64.4020 -19.7370 283° West 445 512 34,000  Level FlightAware ADS-B
Sun 10:44:50 AM 64.4160 -19.8940 282° West 445 512 34,000 94 Level FlightAware ADS-B
Sun 10:45:21 AM 64.4300 -20.0350 283° West 444 511 34,100  Climbing FlightAware ADS-B
Sun 10:46:00 AM 64.4470 -20.2200 282° West 445 512 34,000  Descending FlightAware ADS-B
Sun 10:46:36 AM 64.4620 -20.3860 282° West 445 512 34,100  Climbing FlightAware ADS-B
Sun 10:47:08 AM 64.4750 -20.5330 282° West 445 512 34,000  Descending FlightAware ADS-B
Sun 10:47:44 AM 64.4900 -20.7020 282° West 444 511 34,100  Climbing FlightAware ADS-B
Sun 10:48:22 AM 64.5050 -20.8770 281° West 444 511 34,000 -86 Descending FlightAware ADS-B
Sun 10:48:54 AM 64.5180 -21.0270 281° West 444 511 34,000  Level FlightAware ADS-B
Sun 10:49:21 AM 64.5290 -21.1510 282° West 444 511 34,000  Level FlightAware ADS-B
Sun 10:49:57 AM 64.5430 -21.3200 281° West 444 511 34,000 85 Level FlightAware ADS-B
Sun 10:50:32 AM 64.5560 -21.4840 281° West 443 510 34,100  Climbing FlightAware ADS-B
Sun 10:51:10 AM 64.5710 -21.6600 281° West 442 509 34,000 -85 Descending FlightAware ADS-B
Sun 10:51:43 AM 64.5830 -21.8100 281° West 442 509 34,000  Level FlightAware ADS-B
Sun 10:52:19 AM 64.5960 -21.9800 280° West 441 507 34,000  Level FlightAware ADS-B
Sun 10:52:54 AM 64.6090 -22.1450 280° West 440 506 34,000 90 Level FlightAware ADS-B
Sun 10:53:26 AM 64.6200 -22.2900 280° West 439 505 34,100  Climbing FlightAware ADS-B
Sun 10:54:02 AM 64.6330 -22.4630 280° West 438 504 34,000 -83 Descending FlightAware ADS-B
Sun 10:54:38 AM 64.6460 -22.6310 280° West 437 503 34,000  Level FlightAware ADS-B
Sun 10:55:12 AM 64.6570 -22.7870 279° West 436 502 34,000  Level FlightAware ADS-B
Sun 10:55:46 AM 64.6680 -22.9430 279° West 435 501 34,000  Level FlightAware ADS-B
Sun 10:56:22 AM 64.6800 -23.1100 280° West 434 499 34,000  Level FlightAware ADS-B
Sun 10:56:54 AM 64.6900 -23.2570 279° West 433 498 34,000  Level FlightAware ADS-B
Sun 10:57:32 AM 64.7030 -23.4330 280° West 433 498 34,000  Level FlightAware ADS-B
Sun 10:58:08 AM 64.7140 -23.5970 279° West 433 498 34,000  Level FlightAware ADS-B
Sun 10:58:42 AM 64.7240 -23.7540 279° West 433 498 34,000  Level FlightAware ADS-B
Sun 10:59:18 AM 64.7350 -23.9210 279° West 431 496 34,000  Level FlightAware ADS-B
Sun 10:59:54 AM 64.7450 -24.0840 278° West 431 496 34,000  Level FlightAware ADS-B
Sun 11:00:28 AM 64.7550 -24.2430 278° West 431 496 34,000  Level FlightAware ADS-B
Sun 11:01:02 AM 64.7650 -24.4000 279° West 431 496 34,000  Level FlightAware ADS-B
Sun 11:01:30 AM 64.7730 -24.5300 278° West 431 496 34,000 85 Level FlightAware ADS-B
Sun 11:02:13 AM 64.7840 -24.7100 278° West 430 495 34,100  Climbing FlightAware ADS-B
Sun 11:02:48 AM 64.7930 -24.8660 278° West 428 493 34,000 -85 Descending FlightAware ADS-B
Sun 11:03:24 AM 64.8040 -25.0550 278° West 428 493 34,000  Level FlightAware ADS-B
Sun 11:03:58 AM 64.8120 -25.2090 277° West 428 493 34,000  Level FlightAware ADS-B
Sun 11:04:30 AM 64.8210 -25.3570 278° West 427 491 34,000 87 Level FlightAware ADS-B
Sun 11:05:07 AM 64.8290 -25.5140 277° West 427 491 34,100  Climbing FlightAware ADS-B
Sun 11:05:43 AM 64.8380 -25.6860 277° West 426 490 34,000 -83 Descending FlightAware ADS-B
Sun 11:06:19 AM 64.8470 -25.8580 277° West 424 488 34,000  Level FlightAware ADS-B
Sun 11:06:51 AM 64.8540 -26.0020 277° West 424 488 34,000  Level FlightAware ADS-B
Sun 11:07:27 AM 64.8630 -26.1660 277° West 421 484 34,000 86 Level FlightAware ADS-B
Sun 11:08:01 AM 64.8700 -26.3200 276° West 420 483 34,100  Climbing FlightAware ADS-B
Sun 11:08:38 AM 64.8770 -26.4820 276° West 420 483 34,000  Descending FlightAware ADS-B
Sun 11:09:12 AM 64.8850 -26.6360 277° West 419 482 34,100 87 Climbing FlightAware ADS-B
Sun 11:09:47 AM 64.8920 -26.7990 276° West 418 481 34,100 -85 Level FlightAware ADS-B
Sun 11:10:23 AM 64.8990 -26.9600 276° West 418 481 34,000 -86 Descending FlightAware ADS-B
Sun 11:10:57 AM 64.9050 -27.1090 275° West 416 479 34,000  Level FlightAware ADS-B
Sun 11:11:41 AM 64.9120 -27.2730 276° West 415 478 34,000  Level FlightAware ADS-B
Sun 11:12:23 AM 64.9180 -27.4350 275° West 415 478 34,000  Level FlightAware ADS-B
Sun 11:13:08 AM 64.9280 -27.6730 276° West 413 475 34,000  Level FlightAware ADS-B
Sun 11:13:47 AM 64.9360 -27.8770 275° West 411 473 34,000  Level FlightAware ADS-B
Sun 11:14:24 AM 64.9410 -28.0200 275° West 411 473 34,000  Level FlightAware ADS-B
Sun 11:15:00 AM 64.9450 -28.1570 274° West 411 473 34,000  Level FlightAware ADS-B
Sun 11:15:38 AM 64.9490 -28.3020 274° West 411 473 34,000  Level FlightAware ADS-B
Sun 11:16:09 AM 64.9580 -28.4840 277° West 408 470 34,000  Level FlightAware ADS-B
Sun 11:16:56 AM 64.9630 -28.6620 274° West 408 470 34,000  Level FlightAware ADS-B
Sun 11:17:30 AM 64.9700 -28.8660 275° West 407 468 34,000  Level FlightAware ADS-B
Sun 11:18:03 AM 64.9740 -29.0080 274° West 407 468 34,000  Level FlightAware ADS-B
Sun 11:18:51 AM 64.9790 -29.1970 274° West 407 468 34,000  Level FlightAware ADS-B
Sun 11:19:35 AM 64.9850 -29.4140 274° West 406 467 34,000  Level FlightAware ADS-B
Sun 11:20:17 AM 64.9890 -29.5830 273° West 406 467 34,000  Level FlightAware ADS-B
Sun 11:20:53 AM 64.9940 -29.7610 274° West 407 468 34,000  Level FlightAware ADS-B
Sun 11:21:38 AM 64.9980 -29.9440 273° West 408 470 34,000  Level FlightAware ADS-B
Sun 11:22:07 AM 65.0030 -30.0900 275° West 407 468 34,000  Level FlightAware ADS-B
Sun 11:22:47 AM 65.0090 -30.2680 275° West 408 470 34,000 74 Level FlightAware ADS-B
Sun 11:23:28 AM 65.0140 -30.4260 274° West 408 470 34,100  Climbing FlightAware ADS-B
Sun 11:24:01 AM 65.0190 -30.5920 274° West 408 470 34,000 -90 Descending FlightAware ADS-B
Sun 11:24:35 AM 65.0230 -30.7430 274° West 408 470 34,000  Level FlightAware ADS-B
Sun 11:25:24 AM 65.0280 -30.9450 273° West 408 470 34,000  Level FlightAware ADS-B
Sun 11:26:00 AM 65.0310 -31.0820 273° West 408 470 34,000  Level FlightAware ADS-B
Sun 11:26:36 AM 65.0340 -31.2180 273° West 408 470 34,000  Level FlightAware ADS-B
Sun 11:27:10 AM 65.0370 -31.3470 273° West 408 470 34,000  Level FlightAware ADS-B
Sun 11:27:45 AM 65.0400 -31.4800 273° West 408 470 34,000  Level FlightAware ADS-B
Sun 11:28:21 AM 65.0430 -31.6170 273° West 408 470 34,000  Level FlightAware ADS-B
Sun 11:28:58 AM 65.0460 -31.7580 273° West 408 470 34,000  Level FlightAware ADS-B
Sun 11:29:32 AM 65.0490 -31.8870 273° West 408 470 34,000  Level FlightAware ADS-B
Sun 11:29:58 AM 65.0510 -31.9850 273° West 408 470 34,000  Level FlightAware ADS-B
Sun 11:30:34 AM 65.0540 -32.1220 273° West 408 470 34,000  Level FlightAware ADS-B
Sun 11:31:10 AM 65.0570 -32.2590 273° West 408 470 34,000  Level FlightAware ADS-B
Sun 11:31:45 AM 65.0600 -32.3920 273° West 408 470 34,000  Level FlightAware ADS-B
Sun 11:32:21 AM 65.0630 -32.5290 273° West 408 470 34,000  Level FlightAware ADS-B
Sun 11:32:57 AM 65.0660 -32.6660 273° West 408 470 34,000  Level FlightAware ADS-B
Sun 11:33:33 AM 65.0690 -32.8020 273° West 408 470 34,000  Level FlightAware ADS-B
Sun 11:34:10 AM 65.0720 -32.9430 273° West 408 470 34,000  Level FlightAware ADS-B
Sun 11:34:46 AM 65.0750 -33.0800 273° West 408 470 34,000  Level FlightAware ADS-B
Sun 11:37:00 AM 64.9516 -33.6122 241° Southwest  Level Estimated
Sun 11:38:00 AM 64.8957 -33.8489 241° Southwest  Level Estimated
Sun 11:39:00 AM 64.8395 -34.0847 241° Southwest  Level Estimated
Sun 11:40:00 AM 64.7829 -34.3194 241° Southwest  Level Estimated
Sun 11:41:00 AM 64.7259 -34.5532 240° Southwest  Level Estimated
Sun 11:42:00 AM 64.6685 -34.7859 240° Southwest  Level Estimated
Sun 11:43:00 AM 64.6108 -35.0177 240° Southwest  Level Estimated
Sun 11:44:00 AM 64.5527 -35.2485 240° Southwest  Level Estimated
Sun 11:45:00 AM 64.4943 -35.4783 240° Southwest  Level Estimated
Sun 11:46:00 AM 64.4355 -35.7071 239° Southwest  Level Estimated
Sun 11:47:00 AM 64.3763 -35.9350 239° Southwest  Level Estimated
Sun 11:48:00 AM 64.3168 -36.1618 239° Southwest  Level Estimated
Sun 11:49:00 AM 64.2570 -36.3877 239° Southwest  Level Estimated
Sun 11:50:00 AM 64.1968 -36.6126 238° Southwest  Level Estimated
Sun 11:51:00 AM 64.1363 -36.8366 238° Southwest  Level Estimated
Sun 11:52:00 AM 64.0754 -37.0595 238° Southwest  Level Estimated
Sun 11:53:00 AM 64.0142 -37.2815 238° Southwest  Level Estimated
Sun 11:54:00 AM 63.9526 -37.5025 238° Southwest  Level Estimated
Sun 11:55:00 AM 63.8907 -37.7225 237° Southwest  Level Estimated
Sun 11:56:00 AM 63.8285 -37.9416 237° Southwest  Level Estimated
Sun 11:57:00 AM 63.7659 -38.1597 237° Southwest  Level Estimated
Sun 11:58:00 AM 63.7030 -38.3768 237° Southwest  Level Estimated
Sun 11:59:00 AM 63.6398 -38.5929 237° Southwest  Level Estimated
Sun 12:00:00 PM 63.5763 -38.8081 237° Southwest  Level Estimated
Sun 12:01:00 PM 63.5124 -39.0224 236° Southwest  Level Estimated
Sun 12:02:00 PM 63.4483 -39.2356 236° Southwest  Level Estimated
Sun 12:03:00 PM 63.3838 -39.4480 236° Southwest  Level Estimated
Sun 12:04:00 PM 63.3190 -39.6593 236° Southwest  Level Estimated
Sun 12:05:00 PM 63.2539 -39.8698 236° Southwest  Level Estimated
Sun 12:06:00 PM 63.1884 -40.0792 235° Southwest  Level Estimated
Sun 12:07:00 PM 63.1227 -40.2877 235° Southwest  Level Estimated
Sun 12:08:00 PM 63.0567 -40.4953 235° Southwest  Level Estimated
Sun 12:09:00 PM 62.9903 -40.7019 235° Southwest  Level Estimated
Sun 12:10:00 PM 62.9237 -40.9076 235° Southwest  Level Estimated
Sun 12:11:00 PM 62.8568 -41.1124 234° Southwest  Level Estimated
Sun 12:12:00 PM 62.7896 -41.3162 234° Southwest  Level Estimated
Sun 12:13:00 PM 62.7220 -41.5191 234° Southwest  Level Estimated
Sun 12:14:00 PM 62.6542 -41.7211 234° Southwest  Level Estimated
Sun 12:15:00 PM 62.5861 -41.9221 234° Southwest  Level Estimated
Sun 12:16:00 PM 62.5177 -42.1222 234° Southwest  Level Estimated
Sun 12:17:00 PM 62.4491 -42.3214 233° Southwest  Level Estimated
Sun 12:18:00 PM 62.3801 -42.5197 233° Southwest  Level Estimated
Sun 12:19:00 PM 62.3108 -42.7171 233° Southwest  Level Estimated
Sun 12:20:00 PM 62.2413 -42.9136 233° Southwest  Level Estimated
Sun 12:21:00 PM 62.1715 -43.1091 233° Southwest  Level Estimated
Sun 12:22:00 PM 62.1015 -43.3038 232° Southwest  Level Estimated
Sun 12:23:00 PM 62.0311 -43.4976 232° Southwest  Level Estimated
Sun 12:24:00 PM 61.9605 -43.6904 232° Southwest  Level Estimated
Sun 12:25:00 PM 61.8896 -43.8824 232° Southwest  Level Estimated
Sun 12:26:00 PM 61.8185 -44.0735 232° Southwest  Level Estimated
Sun 12:27:00 PM 61.7471 -44.2637 232° Southwest  Level Estimated
Sun 12:28:00 PM 61.6754 -44.4530 231° Southwest  Level Estimated
Sun 12:29:00 PM 61.6035 -44.6415 231° Southwest  Level Estimated
Sun 12:30:00 PM 61.5313 -44.8290 231° Southwest  Level Estimated
Sun 12:31:00 PM 61.4589 -45.0157 231° Southwest  Level Estimated
Sun 12:32:00 PM 61.3862 -45.2015 231° Southwest  Level Estimated
Sun 12:33:00 PM 61.3132 -45.3865 231° Southwest  Level Estimated
Sun 12:34:00 PM 61.2400 -45.5706 230° Southwest  Level Estimated
Sun 12:35:00 PM 61.1665 -45.7539 230° Southwest  Level Estimated
Sun 12:35:29 PM 63.9580 -50.2740 230° Southwest 457 526 34,000  Level FlightAware ADS-B
Sun 12:36:03 PM 63.9330 -50.4280 250° West 458 527 34,000  Level FlightAware ADS-B
Sun 12:36:33 PM 63.9120 -50.5660 251° West 458 527 34,000  Level FlightAware ADS-B
Sun 12:37:13 PM 63.8840 -50.7420 250° West 458 527 34,000  Level FlightAware ADS-B
Sun 12:37:49 PM 63.8580 -50.9050 250° West 458 527 34,000  Level FlightAware ADS-B
Sun 12:38:25 PM 63.8320 -51.0670 250° West 458 527 34,000  Level FlightAware ADS-B
Sun 12:38:58 PM 63.8080 -51.2150 250° West 458 527 34,000  Level FlightAware ADS-B
Sun 12:39:29 PM 63.7850 -51.3540 250° West 458 527 34,000  Level FlightAware ADS-B
Sun 12:40:03 PM 63.7590 -51.5060 249° West 458 527 34,000  Level FlightAware ADS-B
Sun 12:40:42 PM 63.7310 -51.6790 250° West 458 527 34,000  Level FlightAware ADS-B
Sun 12:41:19 PM 63.7030 -51.8420 249° West 457 526 34,000  Level FlightAware ADS-B
Sun 12:41:54 PM 63.6760 -52.0020 249° West 457 526 34,000  Level FlightAware ADS-B
Sun 12:42:28 PM 63.6500 -52.1510 249° West 456 525 34,000  Level FlightAware ADS-B
Sun 12:43:04 PM 63.6230 -52.3090 249° West 457 526 34,000  Level FlightAware ADS-B
Sun 12:43:36 PM 63.5990 -52.4500 249° West 457 526 34,000  Level FlightAware ADS-B
Sun 12:44:12 PM 63.5700 -52.6110 248° West 458 527 34,000  Level FlightAware ADS-B
Sun 12:44:48 PM 63.5430 -52.7650 249° West 458 527 34,000  Level FlightAware ADS-B
Sun 12:45:22 PM 63.5160 -52.9140 248° West 458 527 34,000  Level FlightAware ADS-B
Sun 12:45:56 PM 63.4890 -53.0670 248° West 458 527 34,000  Level FlightAware ADS-B
Sun 12:46:29 PM 63.4640 -53.2060 248° West 458 527 34,000  Level FlightAware ADS-B
Sun 12:47:04 PM 63.4350 -53.3660 248° West 458 527 34,000  Level FlightAware ADS-B
Sun 12:47:40 PM 63.4060 -53.5200 247° West 458 527 34,000  Level FlightAware ADS-B
Sun 12:48:17 PM 63.3770 -53.6780 248° West 457 526 34,000  Level FlightAware ADS-B
Sun 12:48:52 PM 63.3480 -53.8310 247° West 457 526 34,000 71 Level FlightAware ADS-B
Sun 12:49:42 PM 63.3080 -54.0460 248° West 457 526 34,100  Climbing FlightAware ADS-B
Sun 12:50:24 PM 63.2770 -54.2060 247° West 457 526 34,000 -75 Descending FlightAware ADS-B
Sun 12:51:02 PM 63.2510 -54.3450 247° West 457 526 34,000  Level FlightAware ADS-B
Sun 12:51:41 PM 63.2230 -54.4890 247° West 457 526 34,000  Level FlightAware ADS-B
Sun 12:52:17 PM 63.1980 -54.6210 247° West 457 526 34,000  Level FlightAware ADS-B
Sun 12:52:53 PM 63.1730 -54.7530 247° West 457 526 34,000  Level FlightAware ADS-B
Sun 12:53:30 PM 63.1470 -54.8880 247° West 457 526 34,000  Level FlightAware ADS-B
Sun 12:54:06 PM 63.1210 -55.0200 247° West 457 526 34,000  Level FlightAware ADS-B
Sun 12:54:52 PM 63.0890 -55.1880 247° West 457 526 34,000  Level FlightAware ADS-B
Sun 12:55:26 PM 63.0650 -55.3130 247° West 457 526 34,000  Level FlightAware ADS-B
Sun 12:56:02 PM 63.0400 -55.4440 247° West 457 526 34,000  Level FlightAware ADS-B
Sun 12:56:40 PM 63.0130 -55.5830 247° West 457 526 34,000  Level FlightAware ADS-B
Sun 12:57:15 PM 62.9880 -55.7100 247° West 457 526 34,000  Level FlightAware ADS-B
Sun 12:57:53 PM 62.9620 -55.8480 248° West 457 526 34,000  Level FlightAware ADS-B
Sun 12:58:18 PM 62.9440 -55.9390 247° West 457 526 34,000  Level FlightAware ADS-B
Sun 12:58:54 PM 62.9190 -56.0700 247° West 457 526 34,000  Level FlightAware ADS-B
Sun 12:59:31 PM 62.8930 -56.2050 247° West 457 526 34,000  Level FlightAware ADS-B
Sun 01:02:00 PM 62.7625 -56.7748 244° Southwest  Level FlightAware Approximate
Sun 01:03:00 PM 62.7093 -57.0028 243° Southwest  Level FlightAware Approximate
Sun 01:04:00 PM 62.6557 -57.2300 243° Southwest  Level FlightAware Approximate
Sun 01:05:00 PM 62.6018 -57.4564 243° Southwest  Level FlightAware Approximate
Sun 01:06:00 PM 62.5494 -57.6847 244° Southwest  Level FlightAware Approximate
Sun 01:07:00 PM 62.4979 -57.9129 244° Southwest  Level FlightAware Approximate
Sun 01:08:00 PM 62.4459 -58.1402 244° Southwest  Level FlightAware Approximate
Sun 01:09:00 PM 62.3936 -58.3668 244° Southwest  Level FlightAware Approximate
Sun 01:10:00 PM 62.3409 -58.5926 243° Southwest  Level FlightAware Approximate
Sun 01:11:00 PM 62.2879 -58.8176 243° Southwest  Level FlightAware Approximate
Sun 01:12:00 PM 62.2345 -59.0418 243° Southwest  Level FlightAware Approximate
Sun 01:13:00 PM 62.1807 -59.2652 243° Southwest  Level FlightAware Approximate
Sun 01:14:00 PM 62.1266 -59.4878 243° Southwest  Level FlightAware Approximate
Sun 01:15:00 PM 62.0722 -59.7096 242° Southwest  Level FlightAware Approximate
Sun 01:16:00 PM 62.0173 -59.9306 242° Southwest  Level FlightAware Approximate
Sun 01:17:00 PM 61.9530 -60.1386 234° Southwest  Level FlightAware Approximate
Sun 01:18:00 PM 61.8841 -60.3401 234° Southwest  Level FlightAware Approximate
Sun 01:19:00 PM 61.8150 -60.5407 234° Southwest  Level FlightAware Approximate
Sun 01:20:00 PM 61.7455 -60.7404 234° Southwest  Level FlightAware Approximate
Sun 01:21:00 PM 61.6758 -60.9392 234° Southwest  Level FlightAware Approximate
Sun 01:22:00 PM 61.6057 -61.1371 233° Southwest  Level FlightAware Approximate
Sun 01:22:36 PM 61.3833 -61.8000 233° Southwest 460 529 34,000  Level Gander Center
Sun 01:23:00 PM 61.5354 -61.3340 233° Southwest  Level FlightAware Approximate
Sun 01:23:36 PM 61.3167 -62.0000 235° Southwest 450 518 34,000  Level Gander Center
Sun 01:24:00 PM 61.4648 -61.5302 233° Southwest  Level FlightAware Approximate
Sun 01:24:36 PM 61.2333 -62.2167 231° Southwest 450 518 34,000  Level Gander Center
Sun 01:25:00 PM 61.3940 -61.7254 233° Southwest  Level FlightAware Approximate
Sun 01:25:36 PM 61.1667 -62.4167 235° Southwest 450 518 34,000  Level Gander Center
Sun 01:26:00 PM 61.3228 -61.9197 233° Southwest  Level FlightAware Approximate
Sun 01:26:30 PM 61.1000 -62.5333 220° Southwest 460 529 34,000  Level Montreal Center
Sun 01:27:00 PM 61.2514 -62.1132 233° Southwest  Level FlightAware Approximate
Sun 01:27:30 PM 61.0167 -62.7500 232° Southwest 460 529 34,000  Level Montreal Center
Sun 01:28:30 PM 60.9333 -62.9500 229° Southwest 450 518 34,000  Level Montreal Center
Sun 01:29:30 PM 60.8500 -63.2333 239° Southwest 460 529 34,000 50 Level Montreal Center
Sun 01:30:30 PM 60.7833 -63.4333 236° Southwest 460 529 34,100 100 Climbing Montreal Center
Sun 01:31:30 PM 60.7000 -63.6333 230° Southwest 460 529 34,200 350 Climbing Montreal Center
Sun 01:32:30 PM 60.6000 -63.8500 227° Southwest 460 529 34,800 667 Climbing Montreal Center
Sun 01:33:36 PM 60.5167 -64.1167 238° Southwest 460 529 35,600 571 Climbing Gander Center
Sun 01:34:36 PM 60.4500 -64.3167 236° Southwest 460 529 36,000 200 Climbing Gander Center
Sun 01:35:36 PM 60.3667 -64.5167 230° Southwest 460 529 36,000  Level Gander Center
Sun 01:36:36 PM 60.2833 -64.6667 222° Southwest 450 518 36,000  Level Gander Center
Sun 01:37:36 PM 60.1667 -64.8333 215° Southwest 450 518 36,000  Level Gander Center
Sun 01:38:36 PM 60.0667 -65.0167 222° Southwest 460 529 36,000  Level Gander Center
Sun 01:39:36 PM 59.9667 -65.1667 217° Southwest 460 529 36,000  Level Gander Center
Sun 01:40:36 PM 59.8833 -65.3333 225° Southwest 460 529 36,000 50 Level Gander Center
Sun 01:41:36 PM 59.7667 -65.4833 213° Southwest 460 529 36,100  Climbing Gander Center
Sun 01:42:36 PM 59.6667 -65.6333 217° Southwest 460 529 36,000 -50 Descending Gander Center
Sun 01:43:36 PM 59.5833 -65.7833 222° Southwest 450 518 36,000  Level Gander Center
Sun 01:44:36 PM 59.4667 -65.9000 207° Southwest 450 518 36,000  Level Gander Center
Sun 01:45:36 PM 59.3667 -66.0500 217° Southwest 450 518 36,000  Level Gander Center
Sun 01:46:36 PM 59.2833 -66.2000 223° Southwest 450 518 36,000  Level Gander Center
Sun 01:47:36 PM 59.1667 -66.3500 213° Southwest 450 518 36,000  Level Gander Center
Sun 01:48:36 PM 59.0667 -66.5000 218° Southwest 450 518 36,000  Level Gander Center
Sun 01:49:36 PM 58.9833 -66.6500 223° Southwest 450 518 36,000  Level Gander Center
Sun 01:50:36 PM 58.8667 -66.7667 207° Southwest 450 518 36,000  Level Gander Center
Sun 01:51:36 PM 58.7667 -66.9000 215° Southwest 450 518 36,000  Level Gander Center
Sun 01:52:36 PM 58.6667 -67.0833 224° Southwest 450 518 36,000  Level Gander Center
Sun 01:53:36 PM 58.5667 -67.2000 211° Southwest 450 518 36,000  Level Gander Center
Sun 01:54:36 PM 58.4667 -67.3333 215° Southwest 450 518 36,000  Level Gander Center
Sun 01:55:36 PM 58.3667 -67.4833 218° Southwest 450 518 36,000  Level Gander Center
Sun 01:56:36 PM 58.2667 -67.6333 218° Southwest 450 518 36,000  Level Gander Center
Sun 01:57:36 PM 58.1667 -67.7667 215° Southwest 450 518 36,000  Level Gander Center
Sun 01:58:36 PM 58.0500 -67.9000 211° Southwest 450 518 36,000  Level Gander Center
Sun 01:59:36 PM 57.9500 -68.0167 212° Southwest 450 518 36,000  Level Gander Center
Sun 02:00:36 PM 57.8500 -68.1500 215° Southwest 450 518 36,000  Level Gander Center
Sun 02:01:36 PM 57.7500 -68.2833 215° Southwest 450 518 36,000  Level Gander Center
Sun 02:02:36 PM 57.6500 -68.4000 212° Southwest 450 518 36,000  Level Gander Center
Sun 02:03:36 PM 57.5333 -68.5333 212° Southwest 450 518 36,000  Level Gander Center
Sun 02:04:36 PM 57.4500 -68.6667 221° Southwest 450 518 36,000  Level Gander Center
Sun 02:05:36 PM 57.3333 -68.7667 205° Southwest 450 518 36,000  Level Gander Center
Sun 02:06:36 PM 57.2333 -68.9000 216° Southwest 450 518 36,000  Level Gander Center
Sun 02:07:36 PM 57.1333 -69.0333 216° Southwest 450 518 36,000  Level Gander Center
Sun 02:08:36 PM 57.0333 -69.1667 216° Southwest 450 518 36,000  Level Gander Center
Sun 02:09:36 PM 56.9167 -69.2667 205° Southwest 450 518 36,000  Level Gander Center
Sun 02:10:36 PM 56.8167 -69.4000 216° Southwest 450 518 36,000  Level Gander Center
Sun 02:11:36 PM 56.7000 -69.5333 212° Southwest 450 518 36,000 50 Level Gander Center
Sun 02:12:36 PM 56.6000 -69.6333 209° Southwest 440 506 36,100 50 Climbing Gander Center
Sun 02:13:36 PM 56.5000 -69.7667 216° Southwest 440 506 36,100 -50 Level Gander Center
Sun 02:14:36 PM 56.4000 -69.9000 216° Southwest 440 506 36,000 -50 Descending Gander Center
Sun 02:15:36 PM 56.2833 -69.9833 202° Southwest 440 506 36,000  Level Gander Center
Sun 02:16:36 PM 56.2000 -70.1167 222° Southwest 440 506 36,000  Level Gander Center
Sun 02:17:36 PM 56.0833 -70.2167 206° Southwest 440 506 36,000  Level Gander Center
Sun 02:18:36 PM 55.9833 -70.3500 217° Southwest 440 506 36,000  Level Gander Center
Sun 02:19:36 PM 55.8833 -70.4333 205° Southwest 440 506 36,000  Level Gander Center
Sun 02:20:36 PM 55.7833 -70.5667 217° Southwest 440 506 36,000  Level Gander Center
Sun 02:21:36 PM 55.6833 -70.7000 217° Southwest 440 506 36,000  Level Gander Center
Sun 02:22:36 PM 55.5833 -70.7833 205° Southwest 440 506 36,000  Level Gander Center
Sun 02:23:36 PM 55.4667 -70.9000 210° Southwest 440 506 36,000  Level Gander Center
Sun 02:24:36 PM 55.3500 -71.0333 213° Southwest 440 506 36,000  Level Gander Center
Sun 02:25:36 PM 55.2500 -71.1167 205° Southwest 440 506 36,000  Level Gander Center
Sun 02:26:36 PM 55.1500 -71.2500 217° Southwest 440 506 36,000  Level Gander Center
Sun 02:27:36 PM 55.0500 -71.3333 206° Southwest 440 506 36,000  Level Gander Center
Sun 02:28:36 PM 54.9333 -71.4500 210° Southwest 440 506 36,000  Level Gander Center
Sun 02:29:36 PM 54.8333 -71.5833 218° Southwest 440 506 36,000  Level Gander Center
Sun 02:30:36 PM 54.7333 -71.6667 206° Southwest 440 506 36,000  Level Gander Center
Sun 02:31:36 PM 54.6167 -71.7833 210° Southwest 440 506 36,000  Level Gander Center
Sun 02:32:36 PM 54.5333 -71.8833 215° Southwest 440 506 36,000  Level Gander Center
Sun 02:33:36 PM 54.4167 -72.0000 210° Southwest 440 506 36,000  Level Gander Center
Sun 02:34:36 PM 54.3000 -72.1167 210° Southwest 440 506 36,000  Level Gander Center
Sun 02:35:36 PM 54.2000 -72.2167 210° Southwest 440 506 36,000  Level Gander Center
Sun 02:36:36 PM 54.1000 -72.3167 210° Southwest 440 506 36,000  Level Gander Center
Sun 02:37:36 PM 53.9833 -72.4333 210° Southwest 440 506 36,000  Level Gander Center
Sun 02:38:36 PM 53.8833 -72.5167 206° Southwest 440 506 36,000  Level Gander Center
Sun 02:39:36 PM 53.7833 -72.6333 215° Southwest 440 506 36,000  Level Gander Center
Sun 02:40:36 PM 53.6833 -72.7167 206° Southwest 440 506 36,000  Level Gander Center
Sun 02:41:36 PM 53.5833 -72.8333 215° Southwest 440 506 36,000  Level Gander Center
Sun 02:42:36 PM 53.4667 -72.9500 211° Southwest 440 506 36,000  Level Gander Center
Sun 02:43:36 PM 53.3667 -73.0333 206° Southwest 440 506 36,000  Level Gander Center
Sun 02:44:36 PM 53.2667 -73.1500 215° Southwest 440 506 36,000  Level Gander Center
Sun 02:45:30 PM 53.1667 -73.1833 191° South 440 506 36,000  Level Montreal Center
Sun 02:46:30 PM 53.0500 -73.2667 203° Southwest 430 495 36,000  Level Montreal Center
Sun 02:47:30 PM 52.9667 -73.4000 224° Southwest 440 506 36,000  Level Montreal Center
Sun 02:48:30 PM 52.8500 -73.4833 203° Southwest 440 506 36,000  Level Montreal Center
Sun 02:49:30 PM 52.7500 -73.5667 207° Southwest 430 495 36,000  Level Montreal Center
Sun 02:50:30 PM 52.6333 -73.6833 211° Southwest 430 495 36,000  Level Montreal Center
Sun 02:51:30 PM 52.5333 -73.7833 211° Southwest 440 506 36,000  Level Montreal Center
Sun 02:52:30 PM 52.4167 -73.8667 204° Southwest 430 495 36,000  Level Montreal Center
Sun 02:53:30 PM 52.3167 -73.9500 207° Southwest 430 495 36,000  Level Montreal Center
Sun 02:54:30 PM 52.2167 -74.0667 216° Southwest 440 506 36,000  Level Montreal Center
Sun 02:55:30 PM 52.1000 -74.1500 204° Southwest 430 495 36,000  Level Montreal Center
Sun 02:56:30 PM 52.0000 -74.2500 212° Southwest 440 506 36,000  Level Montreal Center
Sun 02:57:30 PM 51.8833 -74.3500 208° Southwest 430 495 36,000  Level Montreal Center
Sun 02:58:30 PM 51.7833 -74.4333 207° Southwest 430 495 36,000  Level Montreal Center
Sun 02:59:30 PM 51.6667 -74.5333 208° Southwest 430 495 36,000  Level Montreal Center
Sun 03:00:30 PM 51.5667 -74.6333 212° Southwest 440 506 36,000  Level Montreal Center
Sun 03:01:30 PM 51.4667 -74.7167 207° Southwest 430 495 36,000  Level Montreal Center
Sun 03:02:30 PM 51.3500 -74.8000 204° Southwest 430 495 36,000  Level Montreal Center
Sun 03:03:30 PM 51.2500 -74.9167 216° Southwest 440 506 36,000  Level Montreal Center
Sun 03:04:30 PM 51.1333 -75.0000 204° Southwest 440 506 36,000  Level Montreal Center
Sun 03:05:30 PM 51.0333 -75.0833 208° Southwest 440 506 36,000  Level Montreal Center
Sun 03:06:30 PM 50.9167 -75.1833 208° Southwest 440 506 36,000  Level Montreal Center
Sun 03:07:30 PM 50.8000 -75.2667 204° Southwest 440 506 36,000  Level Montreal Center
Sun 03:08:30 PM 50.7000 -75.3500 208° Southwest 440 506 36,000  Level Montreal Center
Sun 03:09:30 PM 50.5833 -75.4667 212° Southwest 440 506 36,000  Level Montreal Center
Sun 03:10:30 PM 50.4833 -75.5500 208° Southwest 440 506 36,000  Level Montreal Center
Sun 03:11:30 PM 50.3667 -75.6167 200° South 440 506 36,000  Level Montreal Center
Sun 03:12:30 PM 50.2667 -75.7333 217° Southwest 440 506 36,000  Level Montreal Center
Sun 03:13:30 PM 50.1500 -75.8000 200° South 440 506 36,000  Level Montreal Center
Sun 03:14:30 PM 50.0500 -75.8833 208° Southwest 440 506 36,000  Level Montreal Center
Sun 03:15:30 PM 49.9167 -76.0000 209° Southwest 440 506 36,000  Level Montreal Center
Sun 03:16:30 PM 49.8167 -76.0667 203° Southwest 440 506 36,000  Level Montreal Center
Sun 03:17:30 PM 49.7000 -76.1667 209° Southwest 440 506 36,000  Level Montreal Center
Sun 03:18:30 PM 49.6000 -76.2500 208° Southwest 440 506 36,000  Level Montreal Center
Sun 03:19:30 PM 49.4833 -76.3333 205° Southwest 450 518 36,000  Level Montreal Center
Sun 03:20:30 PM 49.3833 -76.4333 213° Southwest 430 495 36,000  Level Montreal Center
Sun 03:21:30 PM 49.2667 -76.5000 200° South 440 506 36,000  Level Montreal Center
Sun 03:22:30 PM 49.1500 -76.5833 205° Southwest 440 506 36,000  Level Montreal Center
Sun 03:23:30 PM 49.0500 -76.6667 209° Southwest 440 506 36,000  Level Montreal Center
Sun 03:24:30 PM 48.9333 -76.7667 209° Southwest 440 506 36,000  Level Montreal Center
Sun 03:25:30 PM 48.8333 -76.8333 204° Southwest 440 506 36,000  Level Montreal Center
Sun 03:26:30 PM 48.7333 -76.9333 213° Southwest 440 506 36,000  Level Montreal Center
Sun 03:32:28 PM 48.0790 -77.4070 213° Southwest 36,000  Level FlightAware ADS-B
Sun 03:33:04 PM 48.0090 -77.4580 206° Southwest 439 505 36,000  Level FlightAware ADS-B
Sun 03:33:49 PM 47.9430 -77.5060 206° Southwest 439 505 36,000  Level FlightAware ADS-B
Sun 03:34:22 PM 47.8690 -77.5600 206° Southwest 440 506 36,000  Level FlightAware ADS-B
Sun 03:34:58 PM 47.8000 -77.6100 206° Southwest 438 504 36,000  Level FlightAware ADS-B
Sun 03:35:30 PM 47.7410 -77.6520 206° Southwest 438 504 36,000  Level FlightAware ADS-B
Sun 03:36:08 PM 47.6730 -77.7020 206° Southwest 437 503 36,000  Level FlightAware ADS-B
Sun 03:36:42 PM 47.6110 -77.7460 206° Southwest 436 502 36,000  Level FlightAware ADS-B
Sun 03:37:14 PM 47.5530 -77.7880 206° Southwest 437 503 36,000  Level FlightAware ADS-B
Sun 03:37:51 PM 47.4870 -77.8360 206° Southwest 436 502 36,000  Level FlightAware ADS-B
Sun 03:38:28 PM 47.4180 -77.8840 205° Southwest 436 502 36,000  Level FlightAware ADS-B
Sun 03:38:56 PM 47.3670 -77.9210 206° Southwest 435 501 36,000  Level FlightAware ADS-B
Sun 03:39:28 PM 47.3100 -77.9610 205° Southwest 435 501 36,000  Level FlightAware ADS-B
Sun 03:40:04 PM 47.2450 -78.0070 206° Southwest 433 498 36,000  Level FlightAware ADS-B
Sun 03:40:39 PM 47.1830 -78.0510 206° Southwest 433 498 36,000  Level FlightAware ADS-B
Sun 03:41:14 PM 47.1190 -78.0960 206° Southwest 435 501 36,000  Level FlightAware ADS-B
Sun 03:41:47 PM 47.0590 -78.1380 205° Southwest 435 501 36,000  Level FlightAware ADS-B
Sun 03:42:24 PM 46.9920 -78.1850 206° Southwest 436 502 36,000  Level FlightAware ADS-B
Sun 03:43:02 PM 46.9220 -78.2340 206° Southwest 436 502 36,000  Level FlightAware ADS-B
Sun 03:43:36 PM 46.8610 -78.2770 206° Southwest 436 502 36,000  Level FlightAware ADS-B
Sun 03:44:10 PM 46.7970 -78.3210 205° Southwest 437 503 36,000  Level FlightAware ADS-B
Sun 03:44:44 PM 46.7360 -78.3630 205° Southwest 437 503 36,000  Level FlightAware ADS-B
Sun 03:45:18 PM 46.6740 -78.4060 205° Southwest 437 503 36,000  Level FlightAware ADS-B
Sun 03:45:56 PM 46.6040 -78.4550 206° Southwest 437 503 36,000  Level FlightAware ADS-B
Sun 03:46:32 PM 46.5390 -78.4990 205° Southwest 437 503 36,000  Level FlightAware ADS-B
Sun 03:47:02 PM 46.4840 -78.5370 205° Southwest 437 503 36,000  Level FlightAware ADS-B
Sun 03:47:40 PM 46.4140 -78.5850 205° Southwest 435 501 36,000  Level FlightAware ADS-B
Sun 03:48:16 PM 46.3500 -78.6290 205° Southwest 435 501 36,000  Level FlightAware ADS-B
Sun 03:48:48 PM 46.2900 -78.6700 205° Southwest 435 501 36,000  Level FlightAware ADS-B
Sun 03:49:19 PM 46.2350 -78.7070 205° Southwest 434 499 36,000  Level FlightAware ADS-B
Sun 03:49:51 PM 46.1770 -78.7460 205° Southwest 433 498 36,000  Level FlightAware ADS-B
Sun 03:50:26 PM 46.1120 -78.7900 205° Southwest 432 497 36,000  Level FlightAware ADS-B
Sun 03:51:04 PM 46.0450 -78.8360 205° Southwest 430 495 36,000  Level FlightAware ADS-B
Sun 03:51:40 PM 45.9800 -78.8800 205° Southwest 429 494 36,000  Level FlightAware ADS-B
Sun 03:52:12 PM 45.9220 -78.9180 205° Southwest 427 491 36,000  Level FlightAware ADS-B
Sun 03:52:40 PM 45.8730 -78.9510 205° Southwest 427 491 36,000  Level FlightAware ADS-B
Sun 03:53:16 PM 45.8080 -78.9940 205° Southwest 425 489 36,000  Level FlightAware ADS-B
Sun 03:53:50 PM 45.7470 -79.0350 205° Southwest 424 488 36,000  Level FlightAware ADS-B
Sun 03:54:26 PM 45.6830 -79.0780 205° Southwest 422 486 36,000  Level FlightAware ADS-B
Sun 03:55:00 PM 45.6230 -79.1180 205° Southwest 421 484 36,000  Level FlightAware ADS-B
Sun 03:55:36 PM 45.5600 -79.1590 204° Southwest 420 483 36,000  Level FlightAware ADS-B
Sun 03:56:12 PM 45.4970 -79.2010 205° Southwest 419 482 36,000  Level FlightAware ADS-B
Sun 03:56:40 PM 45.4470 -79.2330 204° Southwest 418 481 36,000  Level FlightAware ADS-B
Sun 03:57:14 PM 45.3880 -79.2720 205° Southwest 417 480 36,000  Level FlightAware ADS-B
Sun 03:57:48 PM 45.3280 -79.3110 205° Southwest 416 479 36,000  Level FlightAware ADS-B
Sun 03:58:19 PM 45.2760 -79.3460 205° Southwest 415 478 36,000  Level FlightAware ADS-B
Sun 03:58:52 PM 45.2190 -79.3830 205° Southwest 415 478 36,000  Level FlightAware ADS-B
Sun 03:59:28 PM 45.1580 -79.4220 204° Southwest 415 478 36,000  Level FlightAware ADS-B
Sun 04:00:01 PM 45.0970 -79.4630 205° Southwest 415 478 36,000  Level FlightAware ADS-B
Sun 04:00:38 PM 45.0330 -79.5040 204° Southwest 415 478 36,000  Level FlightAware ADS-B
Sun 04:01:11 PM 44.9760 -79.5410 205° Southwest 415 478 36,000  Level FlightAware ADS-B
Sun 04:01:48 PM 44.9110 -79.5820 204° Southwest 415 478 36,000  Level FlightAware ADS-B
Sun 04:02:24 PM 44.8470 -79.6240 205° Southwest 416 479 36,000  Level FlightAware ADS-B
Sun 04:02:57 PM 44.7900 -79.6600 204° Southwest 417 480 36,000  Level FlightAware ADS-B
Sun 04:03:32 PM 44.7290 -79.6990 204° Southwest 419 482 36,000  Level FlightAware ADS-B
Sun 04:04:08 PM 44.6650 -79.7400 204° Southwest 419 482 36,000  Level FlightAware ADS-B
Sun 04:04:43 PM 44.6030 -79.7800 205° Southwest 418 481 36,000  Level FlightAware ADS-B
Sun 04:05:19 PM 44.5430 -79.8280 210° Southwest 412 474 36,000  Level FlightAware ADS-B
Sun 04:05:52 PM 44.4900 -79.8760 213° Southwest 411 473 36,000  Level FlightAware ADS-B
Sun 04:06:24 PM 44.4380 -79.9230 213° Southwest 411 473 36,000  Level FlightAware ADS-B
Sun 04:07:01 PM 44.3810 -79.9750 213° Southwest 411 473 36,000  Level FlightAware ADS-B
Sun 04:07:38 PM 44.3210 -80.0280 212° Southwest 411 473 36,000  Level FlightAware ADS-B
Sun 04:08:13 PM 44.2650 -80.0780 213° Southwest 411 473 36,000  Level FlightAware ADS-B
Sun 04:08:47 PM 44.2120 -80.1260 213° Southwest 411 473 36,000  Level FlightAware ADS-B
Sun 04:09:25 PM 44.1520 -80.1790 212° Southwest 411 473 36,000  Level FlightAware ADS-B
Sun 04:10:05 PM 44.0860 -80.2380 213° Southwest 410 472 36,000  Level FlightAware ADS-B
Sun 04:10:40 PM 44.0310 -80.2870 213° Southwest 410 472 36,000  Level FlightAware ADS-B
Sun 04:11:14 PM 43.9750 -80.3360 212° Southwest 410 472 36,000  Level FlightAware ADS-B
Sun 04:11:41 PM 43.9340 -80.3720 212° Southwest 409 471 36,000  Level FlightAware ADS-B
Sun 04:12:36 PM 43.8430 -80.4520 212° Southwest 410 472 36,000  Level FlightAware ADS-B
Sun 04:13:09 PM 43.7920 -80.4970 212° Southwest 410 472 36,000  Level FlightAware ADS-B
Sun 04:13:46 PM 43.7330 -80.5490 212° Southwest 410 472 36,000  Level FlightAware ADS-B
Sun 04:14:20 PM 43.6770 -80.5980 212° Southwest 410 472 36,000  Level FlightAware ADS-B
Sun 04:14:53 PM 43.6250 -80.6430 212° Southwest 410 472 36,000  Level FlightAware ADS-B
Sun 04:15:26 PM 43.5720 -80.6890 212° Southwest 411 473 36,000  Level FlightAware ADS-B
Sun 04:16:07 PM 43.5050 -80.7470 212° Southwest 412 474 36,000  Level FlightAware ADS-B
Sun 04:16:39 PM 43.4530 -80.7920 212° Southwest 412 474 36,000  Level FlightAware ADS-B
Sun 04:17:14 PM 43.3980 -80.8400 212° Southwest 412 474 36,000  Level FlightAware ADS-B
Sun 04:17:48 PM 43.3420 -80.8880 212° Southwest 412 474 36,000  Level FlightAware ADS-B
Sun 04:18:23 PM 43.2870 -80.9360 212° Southwest 412 474 36,000  Level FlightAware ADS-B
Sun 04:18:58 PM 43.2300 -80.9850 212° Southwest 411 473 36,000  Level FlightAware ADS-B
Sun 04:19:33 PM 43.1730 -81.0330 212° Southwest 412 474 36,000  Level FlightAware ADS-B
Sun 04:20:10 PM 43.1150 -81.0830 212° Southwest 411 473 36,000  Level FlightAware ADS-B
Sun 04:20:44 PM 43.0580 -81.1310 212° Southwest 410 472 36,000  Level FlightAware ADS-B
Sun 04:21:19 PM 43.0010 -81.1720 208° Southwest 415 478 36,000  Level FlightAware ADS-B
Sun 04:21:53 PM 42.9400 -81.2100 205° Southwest 415 478 36,000  Level FlightAware ADS-B
Sun 04:22:26 PM 42.8830 -81.2450 204° Southwest 414 476 36,000  Level FlightAware ADS-B
Sun 04:23:01 PM 42.8230 -81.2810 204° Southwest 414 476 36,000  Level FlightAware ADS-B
Sun 04:23:38 PM 42.7580 -81.3220 205° Southwest 414 476 36,000  Level FlightAware ADS-B
Sun 04:24:15 PM 42.6930 -81.3610 204° Southwest 414 476 36,000  Level FlightAware ADS-B
Sun 04:24:51 PM 42.6280 -81.4010 204° Southwest 413 475 36,000  Level FlightAware ADS-B
Sun 04:25:23 PM 42.5730 -81.4340 204° Southwest 411 473 36,000  Level FlightAware ADS-B
Sun 04:25:58 PM 42.5130 -81.4720 205° Southwest 410 472 36,000  Level FlightAware ADS-B
Sun 04:26:33 PM 42.4560 -81.5060 204° Southwest 409 471 36,000  Level FlightAware ADS-B
Sun 04:27:09 PM 42.3930 -81.5450 205° Southwest 409 471 36,000  Level FlightAware ADS-B
Sun 04:27:42 PM 42.3350 -81.5790 203° Southwest 407 468 36,000  Level FlightAware ADS-B
Sun 04:28:18 PM 42.2750 -81.6160 205° Southwest 406 467 36,000  Level FlightAware ADS-B
Sun 04:28:54 PM 42.2160 -81.6510 204° Southwest 406 467 36,000  Level FlightAware ADS-B
Sun 04:29:30 PM 42.1520 -81.6900 204° Southwest 406 467 36,000  Level FlightAware ADS-B
Sun 04:30:01 PM 42.0960 -81.7240 204° Southwest 406 467 36,000  Level FlightAware ADS-B
Sun 04:30:35 PM 42.0380 -81.7590 204° Southwest 407 468 36,000  Level FlightAware ADS-B
Sun 04:31:15 PM 41.9710 -81.7990 204° Southwest 408 470 36,000  Level FlightAware ADS-B
Sun 04:31:51 PM 41.9060 -81.8380 204° Southwest 408 470 36,000  Level FlightAware ADS-B
Sun 04:32:23 PM 41.8510 -81.8710 204° Southwest 408 470 36,000  Level FlightAware ADS-B
Sun 04:32:58 PM 41.7930 -81.9050 204° Southwest 407 468 36,000  Level FlightAware ADS-B
Sun 04:33:33 PM 41.7290 -81.9430 204° Southwest 409 471 36,000  Level FlightAware ADS-B
Sun 04:34:09 PM 41.6710 -81.9770 204° Southwest 408 470 36,000  Level FlightAware ADS-B
Sun 04:34:45 PM 41.6060 -82.0160 204° Southwest 407 468 36,000  Level FlightAware ADS-B
Sun 04:35:22 PM 41.5450 -82.0520 204° Southwest 407 468 36,000  Level FlightAware ADS-B
Sun 04:35:54 PM 41.4890 -82.0850 204° Southwest 407 468 36,000  Level FlightAware ADS-B
Sun 04:36:29 PM 41.4260 -82.1220 204° Southwest 408 470 36,000  Level FlightAware ADS-B
Sun 04:37:03 PM 41.3670 -82.1550 203° Southwest 412 474 36,000  Level FlightAware ADS-B
Sun 04:37:39 PM 41.3000 -82.1830 197° South 418 481 36,000  Level FlightAware ADS-B
Sun 04:38:18 PM 41.2280 -82.2090 195° South 419 482 36,000  Level FlightAware ADS-B
Sun 04:38:50 PM 41.1710 -82.2290 195° South 418 481 36,000  Level FlightAware ADS-B
Sun 04:39:23 PM 41.1060 -82.2520 195° South 417 480 36,000  Level FlightAware ADS-B
Sun 04:40:01 PM 41.0360 -82.2770 195° South 416 479 36,000  Level FlightAware ADS-B
Sun 04:40:33 PM 40.9770 -82.2980 195° South 415 478 36,000  Level FlightAware ADS-B
Sun 04:41:05 PM 40.9180 -82.3190 195° South 415 478 36,000  Level FlightAware ADS-B
Sun 04:41:44 PM 40.8470 -82.3440 195° South 414 476 36,000  Level FlightAware ADS-B
Sun 04:42:21 PM 40.7780 -82.3690 195° South 413 475 36,000  Level FlightAware ADS-B
Sun 04:42:56 PM 40.7130 -82.3920 195° South 413 475 36,000  Level FlightAware ADS-B
Sun 04:43:29 PM 40.6520 -82.4130 195° South 414 476 36,000  Level FlightAware ADS-B
Sun 04:44:00 PM 40.5950 -82.4330 195° South 415 478 36,000  Level FlightAware ADS-B
Sun 04:44:39 PM 40.5240 -82.4580 195° South 414 476 36,000  Level FlightAware ADS-B
Sun 04:45:16 PM 40.4540 -82.4830 195° South 413 475 36,000  Level FlightAware ADS-B
Sun 04:45:49 PM 40.3930 -82.5040 195° South 412 474 36,000  Level FlightAware ADS-B
Sun 04:46:25 PM 40.3250 -82.5280 195° South 411 473 36,000  Level FlightAware ADS-B
Sun 04:46:59 PM 40.2630 -82.5490 194° South 410 472 36,000  Level FlightAware ADS-B
Sun 04:47:32 PM 40.2040 -82.5700 195° South 410 472 36,000  Level FlightAware ADS-B
Sun 04:48:12 PM 40.1290 -82.5890 191° South 422 486 36,000  Level FlightAware ADS-B
Sun 04:48:45 PM 40.0650 -82.5950 184° South 427 491 36,000  Level FlightAware ADS-B
Sun 04:49:21 PM 39.9970 -82.5990 183° South 427 491 36,000  Level FlightAware ADS-B
Sun 04:49:53 PM 39.9320 -82.6030 183° South 426 490 36,000  Level FlightAware ADS-B
Sun 04:50:31 PM 39.8540 -82.6080 183° South 425 489 36,000  Level FlightAware ADS-B
Sun 04:51:01 PM 39.7950 -82.6120 183° South 425 489 36,000  Level FlightAware ADS-B
Sun 04:51:37 PM 39.7250 -82.6170 183° South 425 489 36,000  Level FlightAware ADS-B
Sun 04:52:16 PM 39.6490 -82.6220 183° South 426 490 36,000  Level FlightAware ADS-B
Sun 04:52:48 PM 39.5840 -82.6270 183° South 426 490 36,000  Level FlightAware ADS-B
Sun 04:53:25 PM 39.5110 -82.6310 182° South 427 491 36,000  Level FlightAware ADS-B
Sun 04:53:59 PM 39.4450 -82.6360 183° South 426 490 36,000  Level FlightAware ADS-B
Sun 04:54:34 PM 39.3740 -82.6410 183° South 426 490 36,000  Level FlightAware ADS-B
Sun 04:55:07 PM 39.3100 -82.6450 183° South 425 489 36,000  Level FlightAware ADS-B
Sun 04:55:45 PM 39.2350 -82.6500 183° South 424 488 36,000  Level FlightAware ADS-B
Sun 04:56:22 PM 39.1650 -82.6550 183° South 423 487 36,000  Level FlightAware ADS-B
Sun 04:56:55 PM 39.0980 -82.6590 183° South 422 486 36,000  Level FlightAware ADS-B
Sun 04:57:31 PM 39.0270 -82.6640 183° South 421 484 36,000  Level FlightAware ADS-B
Sun 04:58:03 PM 38.9650 -82.6680 183° South 421 484 36,000  Level FlightAware ADS-B
Sun 04:58:39 PM 38.8950 -82.6720 183° South 421 484 36,000  Level FlightAware ADS-B
Sun 04:59:24 PM 38.8080 -82.6780 183° South 421 484 36,000  Level FlightAware ADS-B
Sun 04:59:56 PM 38.7460 -82.6820 183° South 421 484 36,000  Level FlightAware ADS-B
Sun 05:00:28 PM 38.6920 -82.6850 182° South 421 484 36,000  Level FlightAware ADS-B
Sun 05:01:06 PM 38.6090 -82.6910 183° South 421 484 36,000  Level FlightAware ADS-B
Sun 05:01:44 PM 38.5360 -82.6960 183° South 422 486 36,000  Level FlightAware ADS-B
Sun 05:02:15 PM 38.4740 -82.7000 183° South 422 486 36,000  Level FlightAware ADS-B
Sun 05:02:52 PM 38.4020 -82.7050 183° South 423 487 36,000  Level FlightAware ADS-B
Sun 05:03:28 PM 38.3320 -82.7090 183° South 422 486 36,000  Level FlightAware ADS-B
Sun 05:04:02 PM 38.2660 -82.7130 183° South 421 484 36,000  Level FlightAware ADS-B
Sun 05:04:36 PM 38.2000 -82.7180 183° South 420 483 36,000  Level FlightAware ADS-B
Sun 05:05:15 PM 38.1350 -82.7210 182° South 420 483 36,000  Level FlightAware ADS-B
Sun 05:05:57 PM 38.0427 -82.7279 183° South 417 480 36,000  Level FlightAware ADS-B
Sun 05:06:30 PM 37.9800 -82.7320 183° South 415 478 36,000  Level FlightAware ADS-B
Sun 05:07:05 PM 37.9125 -82.7362 183° South 416 479 36,000  Level FlightAware ADS-B
Sun 05:07:46 PM 37.8335 -82.7413 183° South 414 476 36,000  Level FlightAware ADS-B
Sun 05:08:16 PM 37.7766 -82.7458 184° South 410 472 36,000  Level FlightAware ADS-B
Sun 05:08:47 PM 37.7196 -82.7538 186° South 404 465 36,000  Level FlightAware ADS-B
Sun 05:09:06 PM 37.6842 -82.7599 188° South 400 460 36,000  Level FlightAware ADS-B
Sun 05:09:19 PM 37.6619 -82.7668 194° South 390 449 36,000  Level FlightAware ADS-B
Sun 05:09:54 PM 37.6046 -82.7986 204° Southwest 378 435 36,000  Level FlightAware ADS-B
Sun 05:10:35 PM 37.5430 -82.8400 208° Southwest 375 432 36,000  Level FlightAware ADS-B
Sun 05:10:47 PM 37.5234 -82.8527 207° Southwest 376 433 36,000  Level FlightAware ADS-B
Sun 05:11:24 PM 37.4669 -82.8905 208° Southwest 377 434 36,000  Level FlightAware ADS-B
Sun 05:11:55 PM 37.4190 -82.9221 208° Southwest 378 435 36,000  Level FlightAware ADS-B
Sun 05:12:30 PM 37.3647 -82.9575 207° Southwest 378 435 36,000  Level FlightAware ADS-B
Sun 05:13:02 PM 37.3140 -82.9905 207° Southwest 378 435 36,000  Level FlightAware ADS-B
Sun 05:13:33 PM 37.2664 -83.0217 208° Southwest 380 437 36,000  Level FlightAware ADS-B
Sun 05:14:03 PM 37.2191 -83.0527 208° Southwest 381 438 36,000  Level FlightAware ADS-B
Sun 05:14:34 PM 37.1719 -83.0836 208° Southwest 382 440 36,000  Level FlightAware ADS-B
Sun 05:15:09 PM 37.1167 -83.1195 207° Southwest 383 441 36,000  Level FlightAware ADS-B
Sun 05:15:40 PM 37.0675 -83.1513 207° Southwest 384 442 36,000  Level FlightAware ADS-B
Sun 05:16:11 PM 37.0188 -83.1831 208° Southwest 384 442 36,000  Level FlightAware ADS-B
Sun 05:16:42 PM 36.9695 -83.2150 207° Southwest 385 443 36,000  Level FlightAware ADS-B
Sun 05:17:13 PM 36.9212 -83.2463 207° Southwest 385 443 36,000  Level FlightAware ADS-B
Sun 05:17:44 PM 36.8725 -83.2778 207° Southwest 386 444 36,000  Level FlightAware ADS-B
Sun 05:18:14 PM 36.8251 -83.3085 207° Southwest 384 442 36,000  Level FlightAware ADS-B
Sun 05:18:46 PM 36.7743 -83.3412 207° Southwest 385 443 36,000  Level FlightAware ADS-B
Sun 05:19:19 PM 36.7211 -83.3755 207° Southwest 383 441 36,000  Level FlightAware ADS-B
Sun 05:19:51 PM 36.6715 -83.4074 207° Southwest 382 440 36,000  Level FlightAware ADS-B
Sun 05:20:21 PM 36.6245 -83.4375 207° Southwest 381 438 36,000  Level FlightAware ADS-B
Sun 05:20:51 PM 36.5773 -83.4679 207° Southwest 380 437 36,000  Level FlightAware ADS-B
Sun 05:21:23 PM 36.5283 -83.4992 207° Southwest 379 436 36,000  Level FlightAware ADS-B
Sun 05:21:53 PM 36.4813 -83.5293 207° Southwest 378 435 36,000  Level FlightAware ADS-B
Sun 05:22:23 PM 36.4336 -83.5598 207° Southwest 379 436 36,000  Level FlightAware ADS-B
Sun 05:22:53 PM 36.3871 -83.5894 207° Southwest 380 437 36,000  Level FlightAware ADS-B
Sun 05:23:23 PM 36.3400 -83.6194 207° Southwest 379 436 36,000  Level FlightAware ADS-B
Sun 05:23:54 PM 36.2921 -83.6498 207° Southwest 381 438 36,000  Level FlightAware ADS-B
Sun 05:24:25 PM 36.2432 -83.6809 207° Southwest 382 440 36,000  Level FlightAware ADS-B
Sun 05:24:56 PM 36.1948 -83.7117 207° Southwest 383 441 36,000  Level FlightAware ADS-B
Sun 05:25:26 PM 36.1475 -83.7416 207° Southwest 384 442 36,000  Level FlightAware ADS-B
Sun 05:25:56 PM 36.0994 -83.7719 207° Southwest 383 441 36,000  Level FlightAware ADS-B
Sun 05:26:29 PM 36.0485 -83.8041 207° Southwest 385 443 36,000  Level FlightAware ADS-B
Sun 05:27:01 PM 35.9975 -83.8362 207° Southwest 385 443 36,000  Level FlightAware ADS-B
Sun 05:27:32 PM 35.9483 -83.8672 207° Southwest 386 444 36,000  Level FlightAware ADS-B
Sun 05:27:56 PM 35.9085 -83.8898 205° Southwest 394 453 36,000  Level FlightAware ADS-B
Sun 05:28:03 PM 35.8970 -83.8945 198° South 399 459 36,000  Level FlightAware ADS-B
Sun 05:28:19 PM 35.8681 -83.9037 194° South 406 467 36,000  Level FlightAware ADS-B
Sun 05:28:49 PM 35.8114 -83.9181 192° South 410 472 36,000  Level FlightAware ADS-B
Sun 05:29:20 PM 35.7537 -83.9317 191° South 410 472 36,000  Level FlightAware ADS-B
Sun 05:29:52 PM 35.6952 -83.9454 191° South 409 471 36,000  Level FlightAware ADS-B
Sun 05:30:25 PM 35.6340 -83.9601 191° South 408 470 36,000  Level FlightAware ADS-B
Sun 05:30:57 PM 35.5756 -83.9743 191° South 407 468 36,000  Level FlightAware ADS-B
Sun 05:31:27 PM 35.5189 -83.9882 191° South 406 467 36,000  Level FlightAware ADS-B
Sun 05:32:05 PM 35.4502 -84.0050 191° South 405 466 36,000  Level FlightAware ADS-B
Sun 05:32:35 PM 35.3939 -84.0185 191° South 404 465 36,000  Level FlightAware ADS-B
Sun 05:33:06 PM 35.3377 -84.0320 191° South 404 465 36,000  Level FlightAware ADS-B
Sun 05:33:36 PM 35.2828 -84.0453 191° South 404 465 36,000  Level FlightAware ADS-B
Sun 05:34:07 PM 35.2254 -84.0591 191° South 403 464 36,000  Level FlightAware ADS-B
Sun 05:35:06 PM 35.1220 -84.0840 191° South 401 461 36,000  Level FlightAware ADS-B
Sun 05:35:16 PM 35.0999 -84.0892 191° South 402 463 36,000  Level FlightAware ADS-B
Sun 05:35:46 PM 35.0449 -84.1024 191° South 400 460 36,000  Level FlightAware ADS-B
Sun 05:36:51 PM 34.9320 -84.1290 191° South 399 459 36,000  Level FlightAware ADS-B
Sun 05:37:24 PM 34.8682 -84.1445 191° South 399 459 36,000  Level FlightAware ADS-B
Sun 05:37:55 PM 34.8124 -84.1577 191° South 398 458 36,000  Level FlightAware ADS-B
Sun 05:38:25 PM 34.7564 -84.1710 191° South 399 459 36,000  Level FlightAware ADS-B
Sun 05:39:14 PM 34.6720 -84.1910 191° South 398 458 36,000  Level FlightAware ADS-B
Sun 05:39:37 PM 34.6270 -84.2016 191° South 399 459 36,000 111 Level FlightAware ADS-B
Sun 05:40:08 PM 34.5714 -84.2148 191° South 398 458 36,100 194 Climbing FlightAware ADS-B
Sun 05:40:39 PM 34.5155 -84.2281 191° South 396 456 36,200 381 Climbing FlightAware ADS-B
Sun 05:41:11 PM 34.4582 -84.2415 191° South 395 455 36,500 484 Climbing FlightAware ADS-B
Sun 05:41:41 PM 34.4037 -84.2543 191° South 394 453 36,700 353 Climbing FlightAware ADS-B
Sun 05:42:19 PM 34.3363 -84.2702 191° South 394 453 36,900 176 Climbing FlightAware ADS-B
Sun 05:43:23 PM 34.2220 -84.2970 191° South 398 458 37,000 61 Climbing FlightAware ADS-B
Sun 05:43:57 PM 34.1620 -84.3110 191° South 399 459 37,000  Level FlightAware ADS-B
Sun 05:44:35 PM 34.0890 -84.3280 191° South 401 461 37,000  Level FlightAware ADS-B
Sun 05:45:13 PM 34.0260 -84.3430 191° South 395 455 37,000  Level FlightAware ADS-B
Sun 05:45:48 PM 33.9580 -84.3590 191° South 396 456 37,000  Level FlightAware ADS-B
Sun 05:46:10 PM 33.9157 -84.3684 190° South 405 466 37,000  Level FlightAware ADS-B
Sun 05:46:42 PM 33.8567 -84.3822 191° South 407 468 37,000  Level FlightAware ADS-B
Sun 05:47:12 PM 33.8012 -84.3951 191° South 407 468 37,000  Level FlightAware ADS-B
Sun 05:47:43 PM 33.7427 -84.4086 191° South 407 468 37,000  Level FlightAware ADS-B
Sun 05:48:34 PM 33.6482 -84.4301 191° South 407 468 37,000  Level FlightAware ADS-B
Sun 05:48:56 PM 33.6069 -84.4341 185° South 422 486 37,000  Level FlightAware ADS-B
Sun 05:49:28 PM 33.5500 -84.4340 180° South 427 491 37,000  Level FlightAware ADS-B
Sun 05:49:39 PM 33.5208 -84.4332 179° South 428 493 37,000  Level FlightAware ADS-B
Sun 05:50:14 PM 33.4527 -84.4313 179° South 427 491 37,000  Level FlightAware ADS-B
Sun 05:51:08 PM 33.3550 -84.4290 179° South 426 490 37,000  Level FlightAware ADS-B
Sun 05:51:46 PM 33.2810 -84.4280 179° South 425 489 37,000  Level FlightAware ADS-B
Sun 05:52:20 PM 33.2060 -84.4260 179° South 424 488 37,000  Level FlightAware ADS-B
Sun 05:52:58 PM 33.1310 -84.4250 179° South 423 487 37,000  Level FlightAware ADS-B
Sun 05:53:30 PM 33.0730 -84.4240 179° South 422 486 37,000  Level FlightAware ADS-B
Sun 05:54:06 PM 33.0110 -84.4220 178° South 421 484 37,000  Level FlightAware ADS-B
Sun 05:54:41 PM 32.9370 -84.4210 179° South 420 483 37,000  Level FlightAware ADS-B
Sun 05:55:24 PM 32.8590 -84.4190 179° South 419 482 37,000  Level FlightAware ADS-B
Sun 05:56:07 PM 32.7790 -84.4180 179° South 418 481 37,000  Level FlightAware ADS-B
Sun 05:56:43 PM 32.7200 -84.4160 178° South 418 481 37,000  Level FlightAware ADS-B
Sun 05:57:19 PM 32.6600 -84.4150 179° South 418 481 37,000  Level FlightAware ADS-B
Sun 05:57:56 PM 32.6000 -84.4140 179° South 418 481 37,000  Level FlightAware ADS-B
Sun 05:58:32 PM 32.5410 -84.4130 179° South 418 481 37,000  Level FlightAware ADS-B
Sun 05:59:18 PM 32.4650 -84.4110 179° South 418 481 37,000  Level FlightAware ADS-B
Sun 05:59:54 PM 32.4060 -84.4100 179° South 418 481 37,000  Level FlightAware ADS-B
Sun 06:00:30 PM 32.3470 -84.4090 179° South 418 481 37,000  Level FlightAware ADS-B
Sun 06:01:08 PM 32.2840 -84.4070 178° South 418 481 37,000  Level FlightAware ADS-B
Sun 06:01:45 PM 32.2230 -84.4060 179° South 418 481 37,000  Level FlightAware ADS-B
Sun 06:02:21 PM 32.1640 -84.4050 179° South 418 481 37,000  Level FlightAware ADS-B
Sun 06:02:57 PM 32.1050 -84.4040 179° South 418 481 37,000  Level FlightAware ADS-B
Sun 06:03:33 PM 32.0460 -84.4020 178° South 418 481 37,000  Level FlightAware ADS-B
Sun 06:04:09 PM 31.9870 -84.4010 179° South 418 481 37,000  Level FlightAware ADS-B
Sun 06:05:07 PM 31.7280 -84.3970 179° South 419 482 37,000  Level FlightAware ADS-B
Sun 06:05:41 PM 31.6540 -84.3950 179° South 419 482 37,000  Level FlightAware ADS-B
Sun 06:06:18 PM 31.5820 -84.3940 179° South 419 482 37,000  Level FlightAware ADS-B
Sun 06:06:53 PM 31.5140 -84.3920 179° South 420 483 37,000  Level FlightAware ADS-B
Sun 06:07:27 PM 31.4490 -84.3910 179° South 419 482 37,000  Level FlightAware ADS-B
Sun 06:08:04 PM 31.3750 -84.3900 179° South 420 483 37,000  Level FlightAware ADS-B
Sun 06:08:36 PM 31.3130 -84.3890 179° South 420 483 37,000  Level FlightAware ADS-B
Sun 06:09:13 PM 31.2420 -84.3870 179° South 420 483 37,000  Level FlightAware ADS-B
Sun 06:09:48 PM 31.1740 -84.3860 179° South 420 483 37,000  Level FlightAware ADS-B
Sun 06:10:20 PM 31.1120 -84.3850 179° South 420 483 37,000  Level FlightAware ADS-B
Sun 06:10:53 PM 31.0470 -84.3830 178° South 420 483 37,000  Level FlightAware ADS-B
Sun 06:11:31 PM 30.9720 -84.3820 179° South 421 484 37,000  Level FlightAware ADS-B
Sun 06:12:07 PM 30.9040 -84.3810 179° South 422 486 37,000  Level FlightAware ADS-B
Sun 06:12:37 PM 30.8440 -84.3790 178° South 422 486 37,000  Level FlightAware ADS-B
Sun 06:13:18 PM 30.7640 -84.3780 179° South 422 486 37,000  Level FlightAware ADS-B
Sun 06:13:54 PM 30.6920 -84.3760 179° South 423 487 37,000  Level FlightAware ADS-B
Sun 06:14:25 PM 30.6340 -84.3750 179° South 423 487 37,000  Level FlightAware ADS-B
Sun 06:14:34 PM 30.6145 -84.3749 180° South 423 487 37,000  Level FlightAware ADS-B
Sun 06:15:22 PM 30.5230 -84.3520 168° South 458 527 37,000  Level FlightAware ADS-B
Sun 06:15:59 PM 30.4530 -84.3070 151° Southeast 462 532 37,000  Level FlightAware ADS-B
Sun 06:16:35 PM 30.3880 -84.2640 150° Southeast 463 533 37,000  Level FlightAware ADS-B
Sun 06:17:08 PM 30.3250 -84.2220 150° Southeast 461 531 37,000  Level FlightAware ADS-B
Sun 06:17:44 PM 30.2590 -84.1790 151° Southeast 459 528 37,000  Level FlightAware ADS-B
Sun 06:18:19 PM 30.1960 -84.1370 150° Southeast 458 527 37,000  Level FlightAware ADS-B
Sun 06:18:52 PM 30.1310 -84.0960 151° Southeast 456 525 37,000  Level FlightAware ADS-B
Sun 06:19:26 PM 30.0690 -84.0550 150° Southeast 454 522 37,000  Level FlightAware ADS-B
Sun 06:20:03 PM 30.0020 -84.0110 150° Southeast 454 522 37,000  Level FlightAware ADS-B
Sun 06:20:35 PM 29.9430 -83.9730 151° Southeast 454 522 37,000  Level FlightAware ADS-B
Sun 06:21:08 PM 29.8850 -83.9360 151° Southeast 454 522 37,000  Level FlightAware ADS-B
Sun 06:21:49 PM 29.8080 -83.8860 151° Southeast 454 522 37,000  Level FlightAware ADS-B
Sun 06:22:24 PM 29.7430 -83.8440 151° Southeast 455 524 37,000  Level FlightAware ADS-B
Sun 06:22:56 PM 29.6830 -83.8050 151° Southeast 457 526 37,000  Level FlightAware ADS-B
Sun 06:23:33 PM 29.6150 -83.7610 151° Southeast 458 527 37,000  Level FlightAware ADS-B
Sun 06:24:10 PM 29.5470 -83.7180 151° Southeast 459 528 37,000  Level FlightAware ADS-B
Sun 06:24:42 PM 29.4900 -83.6810 151° Southeast 461 531 37,000  Level FlightAware ADS-B
Sun 06:25:18 PM 29.4210 -83.6370 151° Southeast 463 533 37,000  Level FlightAware ADS-B
Sun 06:25:54 PM 29.3520 -83.5930 151° Southeast 464 534 37,000  Level FlightAware ADS-B
Sun 06:26:29 PM 29.2870 -83.5510 151° Southeast 465 535 37,000  Level FlightAware ADS-B
Sun 06:27:01 PM 29.2270 -83.5130 151° Southeast 466 536 37,000  Level FlightAware ADS-B
Sun 06:27:36 PM 29.1600 -83.4710 151° Southeast 466 536 37,000  Level FlightAware ADS-B
Sun 06:28:09 PM 29.0990 -83.4320 151° Southeast 467 537 37,000  Level FlightAware ADS-B
Sun 06:28:49 PM 29.0220 -83.3830 151° Southeast 466 536 37,000  Level FlightAware ADS-B
Sun 06:29:22 PM 28.9630 -83.3450 151° Southeast 466 536 37,000  Level FlightAware ADS-B
Sun 06:29:58 PM 28.8930 -83.3010 151° Southeast 466 536 37,000  Level FlightAware ADS-B
Sun 06:30:35 PM 28.8220 -83.2560 151° Southeast 466 536 37,000  Level FlightAware ADS-B
Sun 06:31:07 PM 28.7620 -83.2180 151° Southeast 466 536 37,000  Level FlightAware ADS-B
Sun 06:31:44 PM 28.6950 -83.1760 151° Southeast 467 537 37,000  Level FlightAware ADS-B
Sun 06:32:16 PM 28.6300 -83.1350 151° Southeast 466 536 37,000  Level FlightAware ADS-B
Sun 06:32:54 PM 28.5600 -83.0910 151° Southeast 466 536 37,000  Level FlightAware ADS-B
Sun 06:33:26 PM 28.4990 -83.0530 151° Southeast 466 536 37,000  Level FlightAware ADS-B
Sun 06:34:03 PM 28.4290 -83.0090 151° Southeast 465 535 37,000  Level FlightAware ADS-B
Sun 06:34:38 PM 28.3660 -82.9690 151° Southeast 465 535 37,000  Level FlightAware ADS-B
Sun 06:35:12 PM 28.2990 -82.9280 152° Southeast 465 535 37,000  Level FlightAware ADS-B
Sun 06:35:49 PM 28.2300 -82.8840 151° Southeast 465 535 37,000  Level FlightAware ADS-B
Sun 06:36:22 PM 28.1680 -82.8460 152° Southeast 465 535 37,000  Level FlightAware ADS-B
Sun 06:36:59 PM 28.0980 -82.8020 151° Southeast 465 535 37,000  Level FlightAware ADS-B
Sun 06:37:35 PM 28.0280 -82.7590 152° Southeast 465 535 37,000  Level FlightAware ADS-B
Sun 06:38:08 PM 27.9660 -82.7200 151° Southeast 465 535 37,000  Level FlightAware ADS-B
Sun 06:38:40 PM 27.9070 -82.6840 152° Southeast 465 535 37,000  Level FlightAware ADS-B
Sun 06:39:18 PM 27.8360 -82.6370 150° Southeast 466 536 37,000  Level FlightAware ADS-B
Sun 06:39:54 PM 27.7690 -82.5920 149° Southeast 465 535 37,000  Level FlightAware ADS-B
Sun 06:40:29 PM 27.7060 -82.5490 149° Southeast 464 534 37,000  Level FlightAware ADS-B
Sun 06:41:01 PM 27.6450 -82.5080 149° Southeast 463 533 37,000  Level FlightAware ADS-B
Sun 06:41:38 PM 27.5770 -82.4630 150° Southeast 463 533 37,000  Level FlightAware ADS-B
Sun 06:42:11 PM 27.5170 -82.4240 150° Southeast 462 532 37,000  Level FlightAware ADS-B
Sun 06:42:47 PM 27.4610 -82.3860 149° Southeast 462 532 37,000  Level FlightAware ADS-B
Sun 06:43:22 PM 27.3870 -82.3370 150° Southeast 461 531 37,000  Level FlightAware ADS-B
Sun 06:43:58 PM 27.3190 -82.2930 150° Southeast 460 529 37,000  Level FlightAware ADS-B
Sun 06:44:33 PM 27.2550 -82.2500 149° Southeast 460 529 37,000  Level FlightAware ADS-B
Sun 06:45:29 PM 27.1530 -82.1830 150° Southeast 459 528 37,000  Level FlightAware ADS-B
Sun 06:46:06 PM 27.0840 -82.1380 150° Southeast 460 529 37,000  Level FlightAware ADS-B
Sun 06:46:38 PM 27.0250 -82.0990 150° Southeast 459 528 37,000  Level FlightAware ADS-B
Sun 06:47:27 PM 26.9450 -82.0480 150° Southeast 458 527 37,000  Level FlightAware ADS-B
Sun 06:48:09 PM 26.8460 -82.0540 183° South 443 510 37,000  Level FlightAware ADS-B
Sun 06:48:42 PM 26.7780 -82.0660 189° South 444 511 37,000  Level FlightAware ADS-B
Sun 06:49:24 PM 26.6980 -82.0790 188° South 436 502 37,000  Level FlightAware ADS-B
Sun 06:49:59 PM 26.6250 -82.0920 189° South 437 503 37,000  Level FlightAware ADS-B
Sun 06:50:34 PM 26.5520 -82.1040 188° South 437 503 37,000  Level FlightAware ADS-B
Sun 06:51:09 PM 26.4800 -82.1160 188° South 436 502 37,000  Level FlightAware ADS-B
Sun 06:51:49 PM 26.3970 -82.1300 189° South 436 502 37,000  Level FlightAware ADS-B
Sun 06:52:19 PM 26.3380 -82.1390 188° South 436 502 37,000  Level FlightAware ADS-B
Sun 06:55:00 PM 26.0254 -82.1648 184° South  Level Estimated
Sun 06:56:00 PM 25.9089 -82.1744 184° South  Level Estimated
Sun 06:57:00 PM 25.7924 -82.1840 184° South  Level Estimated
Sun 06:58:00 PM 25.6760 -82.1936 184° South  Level Estimated
Sun 06:59:00 PM 25.5595 -82.2031 184° South  Level Estimated
Sun 07:00:00 PM 25.4430 -82.2126 184° South  Level Estimated
Sun 07:01:00 PM 25.3265 -82.2221 184° South  Level Estimated
Sun 07:02:00 PM 25.2100 -82.2316 184° South  Level Estimated
Sun 07:03:00 PM 25.0935 -82.2411 184° South  Level Estimated
Sun 07:04:00 PM 24.9770 -82.2505 184° South  Level Estimated
Sun 07:05:00 PM 24.8605 -82.2600 184° South  Level Estimated
Sun 07:06:00 PM 24.7440 -82.2694 184° South  Level Estimated
Sun 07:07:00 PM 24.6276 -82.2788 184° South  Level Estimated
Sun 07:08:00 PM 24.5111 -82.2881 184° South  Level Estimated
Sun 07:09:00 PM 24.3946 -82.2975 184° South  Level Estimated
Sun 07:10:00 PM 24.2781 -82.3068 184° South  Level Estimated
Sun 07:11:00 PM 24.1616 -82.3162 184° South  Level Estimated
Sun 07:12:00 PM 24.0451 -82.3255 184° South  Level Estimated
Sun 07:13:00 PM 23.9286 -82.3348 184° South  Level Estimated
Sun 07:14:00 PM 23.8121 -82.3440 184° South  Level Estimated
Sun 07:15:00 PM 23.6956 -82.3533 184° South  Level Estimated
Sun 07:16:00 PM 23.5791 -82.3625 184° South  Level Estimated
Sun 07:17:00 PM 23.4626 -82.3718 184° South  Level Estimated
Sun 07:18:00 PM 23.3461 -82.3810 184° South  Level Estimated
Sun 07:19:00 PM 23.2296 -82.3902 184° South  Level Estimated
Sun 07:20:00 PM 23.1131 -82.3993 184° South  Level Estimated
Sun 07:21:00 PM 22.9966 -82.4085 184° South  Level Estimated
Sun 07:22:00 PM 22.9891 -82.4091 184° South  Level Estimated
Sun 07:23:00 PM 22.9891 -82.4091 51° Northeast  Level Estimated
Sun 07:24:00 PM 22.9891 -82.4091 51° Northeast  Level Estimated
Sun 07:25:00 PM 22.9891 -82.4091 51° Northeast  Level Estimated
Sun 07:26:00 PM 22.9891 -82.4091 51° Northeast  Level Estimated
Sun 07:27:00 PM 22.9891 -82.4091 51° Northeast  Level Estimated
Sun 07:28:00 PM 22.9891 -82.4091 51° Northeast  Level Estimated
Sun 07:29:00 PM 22.9891 -82.4091 51° Northeast  Level Estimated
Sun 07:30:00 PM 22.9891 -82.4091 51° Northeast  Level Estimated
Sun 07:31:00 PM 22.9891 -82.4091 51° Northeast  Level Estimated
Sun 07:32:00 PM 22.9891 -82.4091 51° Northeast  Level Estimated
Sun 07:33:00 PM 22.9891 -82.4091 51° Northeast  Level Estimated
Sun 07:34:00 PM 22.9891 -82.4091 51° Northeast  Level Estimated
Sun 07:35:00 PM 22.9891 -82.4091 51° Northeast  Level Estimated
Sun 07:36:00 PM 22.9891 -82.4091 51° Northeast  Level Estimated
Sun 07:37:00 PM 22.9891 -82.4091 51° Northeast  Level Estimated
Sun 07:38:00 PM 22.9891 -82.4091 51° Northeast  Level Estimated
Sun 07:39:00 PM 22.9891 -82.4091 51° Northeast  Level Estimated
Sun 07:40:00 PM 22.9891 -82.4091 51° Northeast  Level Estimated
Sun 07:41:00 PM 22.9891 -82.4091 51° Northeast  Level Estimated
Sun 07:42:00 PM 22.9891 -82.4091 51° Northeast  Level Estimated
Sun 07:43:00 PM 22.9891 -82.4091 51° Northeast  Level Estimated
Sun 07:44:00 PM 22.9891 -82.4091 51° Northeast  Level Estimated
Sun 07:45:00 PM 22.9891 -82.4091 51° Northeast  Level Estimated
Sun 07:46:00 PM 22.9891 -82.4091 51° Northeast  Level Estimated
Sun 07:47:00 PM 22.9891 -82.4091 51° Northeast  Level Estimated
Sun 07:48:00 PM 22.9891 -82.4091 51° Northeast  Level Estimated
Sun 07:49:00 PM 22.9891 -82.4091 51° Northeast  Level Estimated

Login

Don't have an account? Register now (free) for customized features, flight alerts, and more!